Darstellungsparameter: Aktuell verwendete Einstellungen:
Skalierung der Graphiken ... ?
xyx+y,   Skalierungsfaktor:      Skalierung: Modus: x, Faktor: 1
Darstellungszeitraum ... ?
Vom - - bis: - -   Zeitraum: 25.08.2019 - 30.08.2019
Min/Max/Avg-Anzeige ... ?
Zeige MMA aktuell
Zeige MMA Monat
Zeige MMA alles
Zeige --A aktuell
Zeige --A Monat
Zeige --A alles
Keine MMA-Anzeige
MMA:
Average (ber die Originaldaten)
MMA-Basis: 25.08.2019 - 30.08.2019
Quicknavigation für Darstellung... ?
Tage:      1T, 2T, 3T, 5T -1T -2T -3T -5T +1T +2T +3T +5T
Wochen: 1W, 2W, 3W -1W -2W -3W +1W +2W +3W
Monate: 1M, 3M, 6M -1M -3M -6M +1M +3M +6M
Jahre:    1J, 3J, 5J, 10J -1J -3J -5J -10J +1J +3J +5J +10J
Nutze für die Darstellung ... ?
Originaldaten oder Mittelwerte auf ...
Stundenbasis Tagesbasis Wochenbasis
Monatsbasis Jahresbasis      Datenbasis: Original-Daten
Darstellen als:
Statistik (Auto) Statistik J:M      Darstellung:
Zur Graphik,    zurück zur Übersicht aller Sensoren.
 
Tabellarische Datenbersicht: ?
 
Sensor: Nr:Datum:Temp:Abs-Feuchte:Windchill:Wind:
Aussen-T/F 1 25-08-2019 00:00:00 17.6 C 12.15 g/m*3 17.6 C 0 km/h
2 25-08-2019 00:05:00 17.5 C 12.08 g/m*3 17.5 C 0 km/h
3 25-08-2019 00:10:00 17.4 C 12 g/m*3 17.4 C 0 km/h
4 25-08-2019 00:15:00 17.4 C 12.15 g/m*3 17.4 C 0 km/h
5 25-08-2019 00:20:00 17.3 C 12.08 g/m*3 17.3 C 0 km/h
6 25-08-2019 00:25:00 17.3 C 12.08 g/m*3 17.3 C 0 km/h
7 25-08-2019 00:30:00 17.3 C 12.08 g/m*3 17.3 C 0 km/h
8 25-08-2019 00:35:00 17.3 C 12.08 g/m*3 17.3 C 0 km/h
9 25-08-2019 00:40:00 17.3 C 12.08 g/m*3 17.3 C 0 km/h
10 25-08-2019 00:45:00 17.3 C 12.08 g/m*3 17.3 C 0 km/h
11 25-08-2019 00:50:00 17.3 C 12.08 g/m*3 17.3 C 0 km/h
12 25-08-2019 00:55:00 17.3 C 12.08 g/m*3 17.3 C 0 km/h
13 25-08-2019 01:00:00 17.2 C 12.01 g/m*3 17.2 C 0 km/h
14 25-08-2019 01:05:00 17.2 C 12.01 g/m*3 17.2 C 0 km/h
15 25-08-2019 01:10:00 17.1 C 11.94 g/m*3 17.1 C 0 km/h
16 25-08-2019 01:15:00 17 C 11.87 g/m*3 17 C 0 km/h
17 25-08-2019 01:20:00 17 C 12.01 g/m*3 17 C 0 km/h
18 25-08-2019 01:25:00 17 C 12.01 g/m*3 17 C 0 km/h
19 25-08-2019 01:30:00 16.9 C 11.94 g/m*3 16.9 C 0 km/h
20 25-08-2019 01:35:00 16.9 C 11.94 g/m*3 16.9 C 0 km/h
21 25-08-2019 01:40:00 16.9 C 11.94 g/m*3 16.9 C 0 km/h
22 25-08-2019 01:45:00 16.8 C 11.87 g/m*3 16.8 C 1.6 km/h
23 25-08-2019 01:50:00 16.8 C 12.01 g/m*3 16.8 C 1.6 km/h
24 25-08-2019 01:55:00 16.8 C 11.87 g/m*3 16.8 C 0 km/h
25 25-08-2019 02:00:00 16.7 C 11.8 g/m*3 16.7 C 0 km/h
Sensor: Nr:Datum:Temp:Abs-Feuchte:Windchill:Wind:
Aussen-T/F 26 25-08-2019 02:05:00 16.6 C 11.87 g/m*3 16.6 C 0 km/h
27 25-08-2019 02:10:00 16.5 C 11.8 g/m*3 16.5 C 0 km/h
28 25-08-2019 02:15:00 16.4 C 11.86 g/m*3 16.4 C 0 km/h
29 25-08-2019 02:20:00 16.3 C 11.79 g/m*3 16.3 C 0 km/h
30 25-08-2019 02:25:00 16.2 C 11.72 g/m*3 16.2 C 0 km/h
31 25-08-2019 02:30:00 16.1 C 11.65 g/m*3 16.1 C 0 km/h
32 25-08-2019 02:35:00 16 C 11.72 g/m*3 16 C 0 km/h
33 25-08-2019 02:40:00 15.9 C 11.65 g/m*3 15.9 C 0 km/h
34 25-08-2019 02:45:00 15.8 C 11.58 g/m*3 15.8 C 0 km/h
35 25-08-2019 02:50:00 15.7 C 11.64 g/m*3 15.7 C 0 km/h
36 25-08-2019 02:55:00 15.7 C 11.64 g/m*3 15.7 C 0 km/h
37 25-08-2019 03:00:00 15.6 C 11.57 g/m*3 15.6 C 0 km/h
38 25-08-2019 03:05:00 15.6 C 11.57 g/m*3 15.6 C 0 km/h
39 25-08-2019 03:10:00 15.6 C 11.7 g/m*3 15.6 C 0 km/h
40 25-08-2019 03:15:00 15.5 C 11.63 g/m*3 15.5 C 0 km/h
41 25-08-2019 03:20:00 15.4 C 11.56 g/m*3 15.4 C 0 km/h
42 25-08-2019 03:25:00 15.3 C 11.49 g/m*3 15.3 C 0 km/h
43 25-08-2019 03:30:00 15.3 C 11.49 g/m*3 15.3 C 0 km/h
44 25-08-2019 03:35:00 15.4 C 11.69 g/m*3 15.4 C 1.6 km/h
45 25-08-2019 03:40:00 15.6 C 11.84 g/m*3 15.6 C 1.6 km/h
46 25-08-2019 03:45:00 15.7 C 11.77 g/m*3 15.7 C 0 km/h
47 25-08-2019 03:50:00 15.7 C 11.77 g/m*3 15.7 C 0 km/h
48 25-08-2019 03:55:00 15.7 C 11.77 g/m*3 15.7 C 0 km/h
49 25-08-2019 04:00:00 15.6 C 11.57 g/m*3 15.6 C 0 km/h
50 25-08-2019 04:05:00 15.5 C 11.63 g/m*3 15.5 C 0 km/h
Sensor: Nr:Datum:Temp:Abs-Feuchte:Windchill:Wind:
Aussen-T/F 51 25-08-2019 04:10:00 15.4 C 11.56 g/m*3 15.4 C 0 km/h
52 25-08-2019 04:15:00 15.3 C 11.49 g/m*3 15.3 C 0 km/h
53 25-08-2019 04:20:00 15.3 C 11.49 g/m*3 15.3 C 0 km/h
54 25-08-2019 04:25:00 15.2 C 11.42 g/m*3 15.2 C 0 km/h
55 25-08-2019 04:30:00 15.1 C 11.48 g/m*3 15.1 C 1.6 km/h
56 25-08-2019 04:35:00 15.1 C 11.48 g/m*3 15.1 C 0 km/h
57 25-08-2019 04:40:00 15 C 11.41 g/m*3 15 C 0 km/h
58 25-08-2019 04:45:00 15 C 11.41 g/m*3 15 C 0 km/h
59 25-08-2019 04:50:00 14.9 C 11.34 g/m*3 14.9 C 0 km/h
60 25-08-2019 04:55:00 14.9 C 11.34 g/m*3 14.9 C 0 km/h
61 25-08-2019 05:00:00 14.8 C 11.27 g/m*3 14.8 C 0 km/h
62 25-08-2019 05:05:00 14.8 C 11.27 g/m*3 14.8 C 0 km/h
63 25-08-2019 05:10:00 14.7 C 11.33 g/m*3 14.7 C 0 km/h
64 25-08-2019 05:15:00 14.7 C 11.33 g/m*3 14.7 C 0 km/h
65 25-08-2019 05:20:00 14.7 C 11.33 g/m*3 14.7 C 0 km/h
66 25-08-2019 05:25:00 14.6 C 11.26 g/m*3 14.6 C 0 km/h
67 25-08-2019 05:30:00 14.7 C 11.33 g/m*3 14.7 C 0 km/h
68 25-08-2019 05:35:00 14.7 C 11.33 g/m*3 14.7 C 0 km/h
69 25-08-2019 05:40:00 14.6 C 11.26 g/m*3 14.6 C 0 km/h
70 25-08-2019 05:45:00 14.6 C 11.26 g/m*3 14.6 C 0 km/h
71 25-08-2019 05:50:00 14.5 C 11.19 g/m*3 14.5 C 0 km/h
72 25-08-2019 05:55:00 14.5 C 11.19 g/m*3 14.5 C 0 km/h
73 25-08-2019 06:00:00 14.5 C 11.32 g/m*3 14.5 C 0 km/h
74 25-08-2019 06:05:00 14.5 C 11.32 g/m*3 14.5 C 0 km/h
75 25-08-2019 06:10:00 14.5 C 11.32 g/m*3 14.5 C 0 km/h
Sensor: Nr:Datum:Temp:Abs-Feuchte:Windchill:Wind:
Aussen-T/F 76 25-08-2019 06:15:00 14.5 C 11.32 g/m*3 14.5 C 0 km/h
77 25-08-2019 06:20:00 14.4 C 11.13 g/m*3 14.4 C 0 km/h
78 25-08-2019 06:25:00 14.3 C 11.06 g/m*3 14.3 C 0 km/h
79 25-08-2019 06:30:00 14.3 C 11.18 g/m*3 14.3 C 0 km/h
80 25-08-2019 06:35:00 14.4 C 11.25 g/m*3 14.4 C 0 km/h
81 25-08-2019 06:40:00 14.4 C 11.25 g/m*3 14.4 C 0 km/h
82 25-08-2019 06:45:00 14.4 C 11.25 g/m*3 14.4 C 0 km/h
83 25-08-2019 06:50:00 14.4 C 11.25 g/m*3 14.4 C 0 km/h
84 25-08-2019 06:55:00 14.4 C 11.25 g/m*3 14.4 C 0 km/h
85 25-08-2019 07:00:00 14.4 C 11.37 g/m*3 14.4 C 1.6 km/h
86 25-08-2019 07:05:00 14.6 C 11.51 g/m*3 14.6 C 1.6 km/h
87 25-08-2019 07:10:00 14.7 C 11.46 g/m*3 14.7 C 0 km/h
88 25-08-2019 07:15:00 14.7 C 11.46 g/m*3 14.7 C 0 km/h
89 25-08-2019 07:20:00 14.7 C 11.46 g/m*3 14.7 C 0 km/h
90 25-08-2019 07:25:00 14.8 C 11.53 g/m*3 14.8 C 0 km/h
91 25-08-2019 07:30:00 14.8 C 11.53 g/m*3 14.8 C 0 km/h
92 25-08-2019 07:35:00 14.8 C 11.65 g/m*3 14.8 C 0 km/h
93 25-08-2019 07:40:00 14.9 C 11.73 g/m*3 14.9 C 0 km/h
94 25-08-2019 07:45:00 15 C 11.8 g/m*3 15 C 0 km/h
95 25-08-2019 07:50:00 15.1 C 11.74 g/m*3 15.1 C 0 km/h
96 25-08-2019 07:55:00 15.2 C 11.81 g/m*3 15.2 C 0 km/h
97 25-08-2019 08:00:00 15.2 C 11.81 g/m*3 15.2 C 0 km/h
98 25-08-2019 08:05:00 15.3 C 11.88 g/m*3 15.3 C 0 km/h
99 25-08-2019 08:10:00 15.4 C 11.96 g/m*3 15.4 C 0 km/h
100 25-08-2019 08:15:00 15.6 C 12.1 g/m*3 15.6 C 0 km/h
Sensor: Nr:Datum:Temp:Abs-Feuchte:Windchill:Wind:
Aussen-T/F 101 25-08-2019 08:20:00 15.7 C 12.18 g/m*3 15.7 C 0 km/h
102 25-08-2019 08:25:00 15.8 C 12.11 g/m*3 15.8 C 0 km/h
103 25-08-2019 08:30:00 15.8 C 12.11 g/m*3 15.8 C 0 km/h
104 25-08-2019 08:35:00 16 C 12.26 g/m*3 16 C 0 km/h
105 25-08-2019 08:40:00 16.2 C 12.41 g/m*3 16.2 C 0 km/h
106 25-08-2019 08:45:00 16.3 C 12.62 g/m*3 16.3 C 0 km/h
107 25-08-2019 08:50:00 16.4 C 12.56 g/m*3 16.4 C 0 km/h
108 25-08-2019 08:55:00 16.4 C 12.56 g/m*3 16.4 C 0 km/h
109 25-08-2019 09:00:00 16.6 C 12.71 g/m*3 16.6 C 0 km/h
110 25-08-2019 09:05:00 16.7 C 12.79 g/m*3 16.7 C 0 km/h
111 25-08-2019 09:10:00 16.8 C 12.87 g/m*3 16.8 C 0 km/h
112 25-08-2019 09:15:00 16.9 C 12.94 g/m*3 16.9 C 0 km/h
113 25-08-2019 09:20:00 16.9 C 12.8 g/m*3 16.9 C 0 km/h
114 25-08-2019 09:25:00 17.1 C 12.96 g/m*3 17.1 C 0 km/h
115 25-08-2019 09:30:00 17.2 C 12.89 g/m*3 17.2 C 0 km/h
116 25-08-2019 09:35:00 17.3 C 12.82 g/m*3 17.3 C 0 km/h
117 25-08-2019 09:40:00 17.5 C 12.97 g/m*3 17.5 C 0 km/h
118 25-08-2019 09:45:00 17.7 C 13.13 g/m*3 17.7 C 0 km/h
119 25-08-2019 09:50:00 17.8 C 13.2 g/m*3 17.8 C 0 km/h
120 25-08-2019 09:55:00 17.9 C 13.13 g/m*3 17.9 C 0 km/h
121 25-08-2019 10:00:00 18 C 13.36 g/m*3 18 C 0 km/h
122 25-08-2019 10:05:00 18.2 C 13.37 g/m*3 18.2 C 0 km/h
123 25-08-2019 10:10:00 18.3 C 13.45 g/m*3 18.3 C 0 km/h
124 25-08-2019 10:15:00 18.4 C 13.37 g/m*3 18.4 C 0 km/h
125 25-08-2019 10:20:00 18.5 C 13.61 g/m*3 18.5 C 0 km/h
Sensor: Nr:Datum:Temp:Abs-Feuchte:Windchill:Wind:
Aussen-T/F 126 25-08-2019 10:25:00 18.6 C 13.53 g/m*3 18.6 C 0 km/h
127 25-08-2019 10:30:00 18.8 C 13.53 g/m*3 18.8 C 0 km/h
128 25-08-2019 10:35:00 18.9 C 13.77 g/m*3 18.9 C 0 km/h
129 25-08-2019 10:40:00 19.1 C 13.61 g/m*3 19.1 C 0 km/h
130 25-08-2019 10:45:00 19.3 C 13.77 g/m*3 19.3 C 0 km/h
131 25-08-2019 10:50:00 19.6 C 14.01 g/m*3 19.6 C 0 km/h
132 25-08-2019 10:55:00 19.7 C 14.09 g/m*3 19.7 C 0 km/h
133 25-08-2019 11:00:00 20 C 14.17 g/m*3 20 C 0 km/h
134 25-08-2019 11:05:00 20.3 C 14.25 g/m*3 20.3 C 3.2 km/h
135 25-08-2019 11:10:00 20.8 C 14.12 g/m*3 20.8 C 4.8 km/h
136 25-08-2019 11:15:00 21.1 C 14.37 g/m*3 21.1 C 1.6 km/h
137 25-08-2019 11:20:00 21.4 C 14.62 g/m*3 21.4 C 1.6 km/h
138 25-08-2019 11:25:00 21.6 C 14.79 g/m*3 21.6 C 0 km/h
139 25-08-2019 11:30:00 21.9 C 14.67 g/m*3 21.9 C 1.6 km/h
140 25-08-2019 11:35:00 22.2 C 15.31 g/m*3 22.2 C 0 km/h
141 25-08-2019 11:40:00 22.3 C 15.01 g/m*3 22.3 C 0 km/h
142 25-08-2019 11:45:00 22.5 C 14.98 g/m*3 22.5 C 0 km/h
143 25-08-2019 11:50:00 22.7 C 15.15 g/m*3 22.7 C 1.6 km/h
144 25-08-2019 11:55:00 22.9 C 15.12 g/m*3 22.9 C 3.2 km/h
145 25-08-2019 12:00:00 23.2 C 15.38 g/m*3 23.2 C 1.6 km/h
146 25-08-2019 12:05:00 23.5 C 15.86 g/m*3 23.5 C 3.2 km/h
147 25-08-2019 12:10:00 23.8 C 15.7 g/m*3 23.8 C 3.2 km/h
148 25-08-2019 12:15:00 24 C 15.66 g/m*3 24 C 3.2 km/h
149 25-08-2019 12:20:00 24.3 C 15.71 g/m*3 24.3 C 3.2 km/h
150 25-08-2019 12:25:00 24.5 C 15.67 g/m*3 24.5 C 4.8 km/h
Sensor: Nr:Datum:Temp:Abs-Feuchte:Windchill:Wind:
Aussen-T/F 151 25-08-2019 12:30:00 24.7 C 15.84 g/m*3 24.7 C 4.8 km/h
152 25-08-2019 12:35:00 24.9 C 15.57 g/m*3 24.9 C 3.2 km/h
153 25-08-2019 12:40:00 25.2 C 15.6 g/m*3 25.2 C 4.8 km/h
154 25-08-2019 12:45:00 25.3 C 15.69 g/m*3 25.3 C 3.2 km/h
155 25-08-2019 12:50:00 25.5 C 15.86 g/m*3 25.5 C 3.2 km/h
156 25-08-2019 12:55:00 25.6 C 15.71 g/m*3 25.6 C 1.6 km/h
157 25-08-2019 13:00:00 25.8 C 15.89 g/m*3 25.8 C 4.8 km/h
158 25-08-2019 13:05:00 25.9 C 15.98 g/m*3 25.9 C 3.2 km/h
159 25-08-2019 13:10:00 26.2 C 16 g/m*3 26.2 C 4.8 km/h
160 25-08-2019 13:15:00 26.4 C 15.93 g/m*3 26.4 C 4.8 km/h
161 25-08-2019 13:20:00 26.6 C 15.86 g/m*3 26.6 C 3.2 km/h
162 25-08-2019 13:25:00 26.8 C 16.04 g/m*3 26.8 C 3.2 km/h
163 25-08-2019 13:30:00 26.9 C 16.12 g/m*3 26.9 C 1.6 km/h
164 25-08-2019 13:35:00 27.1 C 16.04 g/m*3 27.1 C 3.2 km/h
165 25-08-2019 13:40:00 27.2 C 15.87 g/m*3 27.2 C 1.6 km/h
166 25-08-2019 13:45:00 27.3 C 15.96 g/m*3 27.3 C 3.2 km/h
167 25-08-2019 13:50:00 27.4 C 15.79 g/m*3 27.4 C 3.2 km/h
168 25-08-2019 13:55:00 27.6 C 16.23 g/m*3 27.6 C 3.2 km/h
169 25-08-2019 14:00:00 27.7 C 15.78 g/m*3 27.7 C 3.2 km/h
170 25-08-2019 14:05:00 27.8 C 15.6 g/m*3 27.8 C 4.8 km/h
171 25-08-2019 14:10:00 27.9 C 15.69 g/m*3 27.9 C 0 km/h
172 25-08-2019 14:15:00 28.1 C 15.86 g/m*3 28.1 C 0 km/h
173 25-08-2019 14:20:00 28.2 C 15.4 g/m*3 28.2 C 3.2 km/h
174 25-08-2019 14:25:00 28.2 C 15.95 g/m*3 28.2 C 3.2 km/h
175 25-08-2019 14:30:00 28.3 C 15.76 g/m*3 28.3 C 4.8 km/h
Sensor: Nr:Datum:Temp:Abs-Feuchte:Windchill:Wind:
Aussen-T/F 176 25-08-2019 14:35:00 28.4 C 16.12 g/m*3 28.4 C 8.1 km/h
177 25-08-2019 14:40:00 28.7 C 15.82 g/m*3 28.7 C 8.1 km/h
178 25-08-2019 14:45:00 28.8 C 15.91 g/m*3 28.8 C 6.4 km/h
179 25-08-2019 14:50:00 29.1 C 16.17 g/m*3 29.1 C 3.2 km/h
180 25-08-2019 14:55:00 29.3 C 15.77 g/m*3 29.3 C 6.4 km/h
181 25-08-2019 15:00:00 29.6 C 16.02 g/m*3 29.6 C 8.1 km/h
182 25-08-2019 15:05:00 29.8 C 16.2 g/m*3 29.8 C 6.4 km/h
183 25-08-2019 15:10:00 29.9 C 15.38 g/m*3 29.9 C 8.1 km/h
184 25-08-2019 15:15:00 30.1 C 16.46 g/m*3 30.1 C 1.6 km/h
185 25-08-2019 15:20:00 30.2 C 16.55 g/m*3 30.2 C 3.2 km/h
186 25-08-2019 15:25:00 30.3 C 15.72 g/m*3 30.3 C 3.2 km/h
187 25-08-2019 15:30:00 30.3 C 15.72 g/m*3 30.3 C 8.1 km/h
188 25-08-2019 15:35:00 30.4 C 15.49 g/m*3 30.4 C 4.8 km/h
189 25-08-2019 15:40:00 30.5 C 15.27 g/m*3 30.5 C 4.8 km/h
190 25-08-2019 15:45:00 30.6 C 15.97 g/m*3 30.6 C 3.2 km/h
191 25-08-2019 15:50:00 30.8 C 15.83 g/m*3 30.8 C 6.4 km/h
192 25-08-2019 15:55:00 30.9 C 15.28 g/m*3 30.9 C 8.1 km/h
193 25-08-2019 16:00:00 31.1 C 15.12 g/m*3 31.1 C 8.1 km/h
194 25-08-2019 16:05:00 31.3 C 15.61 g/m*3 31.3 C 8.1 km/h
195 25-08-2019 16:10:00 31.4 C 15.37 g/m*3 31.4 C 8.1 km/h
196 25-08-2019 16:15:00 31.4 C 15.69 g/m*3 31.4 C 11.3 km/h
197 25-08-2019 16:20:00 31.3 C 15.61 g/m*3 31.3 C 8.1 km/h
198 25-08-2019 16:25:00 31.1 C 15.44 g/m*3 31.1 C 9.7 km/h
199 25-08-2019 16:30:00 30.9 C 15.92 g/m*3 30.9 C 1.6 km/h
200 25-08-2019 16:35:00 31 C 15.68 g/m*3 31 C 4.8 km/h
Sensor: Nr:Datum:Temp:Abs-Feuchte:Windchill:Wind:
Aussen-T/F 201 25-08-2019 16:40:00 31.1 C 15.77 g/m*3 31.1 C 8.1 km/h
202 25-08-2019 16:45:00 31.1 C 15.77 g/m*3 31.1 C 4.8 km/h
203 25-08-2019 16:50:00 31.2 C 18.44 g/m*3 31.2 C 0 km/h
204 25-08-2019 16:55:00 31.3 C 18.21 g/m*3 31.3 C 0 km/h
205 25-08-2019 17:00:00 31.6 C 16.19 g/m*3 31.6 C 1.6 km/h
206 25-08-2019 17:05:00 31.8 C 16.03 g/m*3 31.8 C 4.8 km/h
207 25-08-2019 17:10:00 32 C 15.53 g/m*3 32 C 4.8 km/h
208 25-08-2019 17:15:00 32.1 C 14.93 g/m*3 32.1 C 6.4 km/h
209 25-08-2019 17:20:00 32.2 C 15.7 g/m*3 32.2 C 0 km/h
210 25-08-2019 17:25:00 32.4 C 15.52 g/m*3 32.4 C 1.6 km/h
211 25-08-2019 17:30:00 32.6 C 18.47 g/m*3 32.6 C 0 km/h
212 25-08-2019 17:35:00 32.5 C 17.68 g/m*3 32.5 C 1.6 km/h
213 25-08-2019 17:40:00 32.6 C 16.38 g/m*3 32.6 C 3.2 km/h
214 25-08-2019 17:45:00 32.8 C 16.2 g/m*3 32.8 C 4.8 km/h
215 25-08-2019 17:50:00 32.7 C 15.42 g/m*3 32.7 C 6.4 km/h
216 25-08-2019 17:55:00 32.3 C 15.44 g/m*3 32.3 C 11.3 km/h
217 25-08-2019 18:00:00 31.7 C 15.28 g/m*3 31.7 C 11.3 km/h
218 25-08-2019 18:05:00 31.3 C 15.28 g/m*3 31.3 C 8.1 km/h
219 25-08-2019 18:10:00 30.7 C 14.8 g/m*3 30.7 C 12.9 km/h
220 25-08-2019 18:15:00 30.2 C 15.33 g/m*3 30.2 C 6.4 km/h
221 25-08-2019 18:20:00 29.9 C 14.78 g/m*3 29.9 C 3.2 km/h
222 25-08-2019 18:25:00 29.7 C 15.22 g/m*3 29.7 C 1.6 km/h
223 25-08-2019 18:30:00 29.7 C 15.51 g/m*3 29.7 C 4.8 km/h
224 25-08-2019 18:35:00 29.6 C 16.91 g/m*3 29.6 C 4.8 km/h
225 25-08-2019 18:40:00 29.6 C 17.51 g/m*3 29.6 C 0 km/h
Sensor: Nr:Datum:Temp:Abs-Feuchte:Windchill:Wind:
Aussen-T/F 226 25-08-2019 18:45:00 29.5 C 17.41 g/m*3 29.5 C 0 km/h
227 25-08-2019 18:50:00 29.4 C 17.32 g/m*3 29.4 C 0 km/h
228 25-08-2019 18:55:00 29.3 C 17.23 g/m*3 29.3 C 0 km/h
229 25-08-2019 19:00:00 29 C 17.23 g/m*3 29 C 0 km/h
230 25-08-2019 19:05:00 28.7 C 17.24 g/m*3 28.7 C 0 km/h
231 25-08-2019 19:10:00 28.4 C 16.68 g/m*3 28.4 C 0 km/h
232 25-08-2019 19:15:00 28.1 C 17.23 g/m*3 28.1 C 0 km/h
233 25-08-2019 19:20:00 27.7 C 16.85 g/m*3 27.7 C 0 km/h
234 25-08-2019 19:25:00 27.2 C 16.39 g/m*3 27.2 C 0 km/h
235 25-08-2019 19:30:00 26.8 C 16.29 g/m*3 26.8 C 0 km/h
236 25-08-2019 19:35:00 26.5 C 16.27 g/m*3 26.5 C 0 km/h
237 25-08-2019 19:40:00 26.2 C 16 g/m*3 26.2 C 1.6 km/h
238 25-08-2019 19:45:00 25.9 C 15.74 g/m*3 25.9 C 0 km/h
239 25-08-2019 19:50:00 25.6 C 15.47 g/m*3 25.6 C 0 km/h
240 25-08-2019 19:55:00 25.4 C 15.54 g/m*3 25.4 C 0 km/h
241 25-08-2019 20:00:00 25.2 C 15.6 g/m*3 25.2 C 0 km/h
242 25-08-2019 20:05:00 25.1 C 15.74 g/m*3 25.1 C 0 km/h
243 25-08-2019 20:10:00 24.8 C 15.71 g/m*3 24.8 C 0 km/h
244 25-08-2019 20:15:00 24.6 C 15.53 g/m*3 24.6 C 0 km/h
245 25-08-2019 20:20:00 24.4 C 15.58 g/m*3 24.4 C 0 km/h
246 25-08-2019 20:25:00 24.3 C 15.71 g/m*3 24.3 C 0 km/h
247 25-08-2019 20:30:00 24.2 C 15.84 g/m*3 24.2 C 0 km/h
248 25-08-2019 20:35:00 24 C 15.88 g/m*3 24 C 0 km/h
249 25-08-2019 20:40:00 23.9 C 16.01 g/m*3 23.9 C 0 km/h
250 25-08-2019 20:45:00 23.8 C 15.92 g/m*3 23.8 C 0 km/h
Sensor: Nr:Datum:Temp:Abs-Feuchte:Windchill:Wind:
Aussen-T/F 251 25-08-2019 20:50:00 23.8 C 16.13 g/m*3 23.8 C 0 km/h
252 25-08-2019 20:55:00 23.7 C 16.04 g/m*3 23.7 C 1.6 km/h
253 25-08-2019 21:00:00 23.6 C 15.95 g/m*3 23.6 C 0 km/h
254 25-08-2019 21:05:00 23.6 C 16.16 g/m*3 23.6 C 0 km/h
255 25-08-2019 21:10:00 23.5 C 16.07 g/m*3 23.5 C 0 km/h
256 25-08-2019 21:15:00 23.4 C 15.98 g/m*3 23.4 C 0 km/h
257 25-08-2019 21:20:00 23.3 C 15.89 g/m*3 23.3 C 0 km/h
258 25-08-2019 21:25:00 23.2 C 16.01 g/m*3 23.2 C 0 km/h
259 25-08-2019 21:30:00 23 C 15.83 g/m*3 23 C 0 km/h
260 25-08-2019 21:35:00 22.8 C 15.65 g/m*3 22.8 C 0 km/h
261 25-08-2019 21:40:00 22.7 C 15.76 g/m*3 22.7 C 0 km/h
262 25-08-2019 21:45:00 22.4 C 15.69 g/m*3 22.4 C 0 km/h
263 25-08-2019 21:50:00 22.2 C 15.51 g/m*3 22.2 C 0 km/h
264 25-08-2019 21:55:00 22.1 C 15.62 g/m*3 22.1 C 0 km/h
265 25-08-2019 22:00:00 21.9 C 15.44 g/m*3 21.9 C 0 km/h
266 25-08-2019 22:05:00 21.8 C 15.54 g/m*3 21.8 C 0 km/h
267 25-08-2019 22:10:00 21.6 C 15.36 g/m*3 21.6 C 0 km/h
268 25-08-2019 22:15:00 21.4 C 15.37 g/m*3 21.4 C 0 km/h
269 25-08-2019 22:20:00 21.3 C 15.28 g/m*3 21.3 C 0 km/h
270 25-08-2019 22:25:00 21.2 C 15.2 g/m*3 21.2 C 0 km/h
271 25-08-2019 22:30:00 21.1 C 15.29 g/m*3 21.1 C 0 km/h
272 25-08-2019 22:35:00 21 C 15.2 g/m*3 21 C 0 km/h
273 25-08-2019 22:40:00 20.9 C 15.12 g/m*3 20.9 C 0 km/h
274 25-08-2019 22:45:00 20.8 C 15.21 g/m*3 20.8 C 0 km/h
275 25-08-2019 22:50:00 20.7 C 15.12 g/m*3 20.7 C 0 km/h
Sensor: Nr:Datum:Temp:Abs-Feuchte:Windchill:Wind:
Aussen-T/F 276 25-08-2019 22:55:00 20.6 C 15.03 g/m*3 20.6 C 0 km/h
277 25-08-2019 23:00:00 20.5 C 14.95 g/m*3 20.5 C 0 km/h
278 25-08-2019 23:05:00 20.4 C 14.86 g/m*3 20.4 C 0 km/h
279 25-08-2019 23:10:00 20.3 C 14.95 g/m*3 20.3 C 0 km/h
280 25-08-2019 23:15:00 20.3 C 14.95 g/m*3 20.3 C 0 km/h
281 25-08-2019 23:20:00 20.2 C 14.86 g/m*3 20.2 C 0 km/h
282 25-08-2019 23:25:00 20.2 C 14.86 g/m*3 20.2 C 0 km/h
283 25-08-2019 23:30:00 20.1 C 14.95 g/m*3 20.1 C 0 km/h
284 25-08-2019 23:35:00 20 C 14.86 g/m*3 20 C 0 km/h
285 25-08-2019 23:40:00 19.9 C 14.78 g/m*3 19.9 C 0 km/h
286 25-08-2019 23:45:00 19.9 C 14.78 g/m*3 19.9 C 0 km/h
287 25-08-2019 23:50:00 19.8 C 14.69 g/m*3 19.8 C 0 km/h
288 25-08-2019 23:55:00 19.7 C 14.77 g/m*3 19.7 C 0 km/h
289 26-08-2019 00:00:00 19.6 C 14.69 g/m*3 19.6 C 0 km/h
290 26-08-2019 00:05:00 19.6 C 14.69 g/m*3 19.6 C 0 km/h
291 26-08-2019 00:10:00 19.6 C 14.86 g/m*3 19.6 C 0 km/h
292 26-08-2019 00:15:00 19.5 C 14.77 g/m*3 19.5 C 0 km/h
293 26-08-2019 00:20:00 19.5 C 14.77 g/m*3 19.5 C 0 km/h
294 26-08-2019 00:25:00 19.5 C 14.77 g/m*3 19.5 C 0 km/h
295 26-08-2019 00:30:00 19.4 C 14.68 g/m*3 19.4 C 0 km/h
296 26-08-2019 00:35:00 19.4 C 14.85 g/m*3 19.4 C 0 km/h
297 26-08-2019 00:40:00 19.4 C 14.68 g/m*3 19.4 C 0 km/h
298 26-08-2019 00:45:00 19.4 C 14.68 g/m*3 19.4 C 0 km/h
299 26-08-2019 00:50:00 19.4 C 14.85 g/m*3 19.4 C 0 km/h
300 26-08-2019 00:55:00 19.4 C 14.85 g/m*3 19.4 C 0 km/h
Sensor: Nr:Datum:Temp:Abs-Feuchte:Windchill:Wind:
Aussen-T/F 301 26-08-2019 01:00:00 19.4 C 14.85 g/m*3 19.4 C 0 km/h
302 26-08-2019 01:05:00 19.3 C 14.6 g/m*3 19.3 C 0 km/h
303 26-08-2019 01:10:00 19.2 C 14.51 g/m*3 19.2 C 0 km/h
304 26-08-2019 01:15:00 19.2 C 14.68 g/m*3 19.2 C 0 km/h
305 26-08-2019 01:20:00 19.2 C 14.68 g/m*3 19.2 C 0 km/h
306 26-08-2019 01:25:00 19.1 C 14.59 g/m*3 19.1 C 0 km/h
307 26-08-2019 01:30:00 19.1 C 14.59 g/m*3 19.1 C 0 km/h
308 26-08-2019 01:35:00 19.1 C 14.75 g/m*3 19.1 C 0 km/h
309 26-08-2019 01:40:00 19.1 C 14.75 g/m*3 19.1 C 0 km/h
310 26-08-2019 01:45:00 19.1 C 14.59 g/m*3 19.1 C 0 km/h
311 26-08-2019 01:50:00 19 C 14.67 g/m*3 19 C 0 km/h
312 26-08-2019 01:55:00 18.9 C 14.58 g/m*3 18.9 C 0 km/h
313 26-08-2019 02:00:00 18.9 C 14.42 g/m*3 18.9 C 0 km/h
314 26-08-2019 02:05:00 18.8 C 14.49 g/m*3 18.8 C 0 km/h
315 26-08-2019 02:10:00 18.7 C 14.41 g/m*3 18.7 C 0 km/h
316 26-08-2019 02:15:00 18.6 C 14.32 g/m*3 18.6 C 0 km/h
317 26-08-2019 02:20:00 18.5 C 14.24 g/m*3 18.5 C 0 km/h
318 26-08-2019 02:25:00 18.5 C 14.4 g/m*3 18.5 C 1.6 km/h
319 26-08-2019 02:30:00 18.5 C 14.4 g/m*3 18.5 C 0 km/h
320 26-08-2019 02:35:00 18.4 C 14.31 g/m*3 18.4 C 0 km/h
321 26-08-2019 02:40:00 18.3 C 14.23 g/m*3 18.3 C 0 km/h
322 26-08-2019 02:45:00 18.4 C 14.47 g/m*3 18.4 C 0 km/h
323 26-08-2019 02:50:00 18.4 C 14.47 g/m*3 18.4 C 0 km/h
324 26-08-2019 02:55:00 18.4 C 14.47 g/m*3 18.4 C 0 km/h
325 26-08-2019 03:00:00 18.4 C 14.31 g/m*3 18.4 C 0 km/h
Sensor: Nr:Datum:Temp:Abs-Feuchte:Windchill:Wind:
Aussen-T/F 326 26-08-2019 03:05:00 18.3 C 14.23 g/m*3 18.3 C 0 km/h
327 26-08-2019 03:10:00 18.2 C 14.14 g/m*3 18.2 C 0 km/h
328 26-08-2019 03:15:00 18.2 C 14.14 g/m*3 18.2 C 0 km/h
329 26-08-2019 03:20:00 18.1 C 14.21 g/m*3 18.1 C 0 km/h
330 26-08-2019 03:25:00 18 C 14.13 g/m*3 18 C 0 km/h
331 26-08-2019 03:30:00 18 C 14.13 g/m*3 18 C 0 km/h
332 26-08-2019 03:35:00 17.9 C 14.05 g/m*3 17.9 C 0 km/h
333 26-08-2019 03:40:00 17.9 C 14.05 g/m*3 17.9 C 0 km/h
334 26-08-2019 03:45:00 17.8 C 13.96 g/m*3 17.8 C 0 km/h
335 26-08-2019 03:50:00 17.8 C 13.96 g/m*3 17.8 C 0 km/h
336 26-08-2019 03:55:00 17.7 C 13.88 g/m*3 17.7 C 0 km/h
337 26-08-2019 04:00:00 17.7 C 14.03 g/m*3 17.7 C 0 km/h
338 26-08-2019 04:05:00 17.6 C 13.95 g/m*3 17.6 C 0 km/h
339 26-08-2019 04:10:00 17.5 C 13.72 g/m*3 17.5 C 0 km/h
340 26-08-2019 04:15:00 17.5 C 13.87 g/m*3 17.5 C 0 km/h
341 26-08-2019 04:20:00 17.5 C 13.87 g/m*3 17.5 C 0 km/h
342 26-08-2019 04:25:00 17.4 C 13.78 g/m*3 17.4 C 0 km/h
343 26-08-2019 04:30:00 17.4 C 13.78 g/m*3 17.4 C 0 km/h
344 26-08-2019 04:35:00 17.4 C 13.78 g/m*3 17.4 C 0 km/h
345 26-08-2019 04:40:00 17.3 C 13.7 g/m*3 17.3 C 0 km/h
346 26-08-2019 04:45:00 17.3 C 13.7 g/m*3 17.3 C 0 km/h
347 26-08-2019 04:50:00 17.2 C 13.62 g/m*3 17.2 C 0 km/h
348 26-08-2019 04:55:00 17.2 C 13.77 g/m*3 17.2 C 0 km/h
349 26-08-2019 05:00:00 17.2 C 13.77 g/m*3 17.2 C 0 km/h
350 26-08-2019 05:05:00 17.2 C 13.77 g/m*3 17.2 C 0 km/h
Sensor: Nr:Datum:Temp:Abs-Feuchte:Windchill:Wind:
Aussen-T/F 351 26-08-2019 05:10:00 17.1 C 13.68 g/m*3 17.1 C 0 km/h
352 26-08-2019 05:15:00 17.1 C 13.68 g/m*3 17.1 C 1.6 km/h
353 26-08-2019 05:20:00 17.2 C 13.91 g/m*3 17.2 C 0 km/h
354 26-08-2019 05:25:00 17.3 C 14 g/m*3 17.3 C 0 km/h
355 26-08-2019 05:30:00 17.3 C 13.85 g/m*3 17.3 C 0 km/h
356 26-08-2019 05:35:00 17.2 C 13.77 g/m*3 17.2 C 0 km/h
357 26-08-2019 05:40:00 17.1 C 13.68 g/m*3 17.1 C 0 km/h
358 26-08-2019 05:45:00 17 C 13.6 g/m*3 17 C 0 km/h
359 26-08-2019 05:50:00 17 C 13.6 g/m*3 17 C 0 km/h
360 26-08-2019 05:55:00 17 C 13.6 g/m*3 17 C 0 km/h
361 26-08-2019 06:00:00 16.9 C 13.52 g/m*3 16.9 C 0 km/h
362 26-08-2019 06:05:00 16.9 C 13.52 g/m*3 16.9 C 0 km/h
363 26-08-2019 06:10:00 16.9 C 13.52 g/m*3 16.9 C 0 km/h
364 26-08-2019 06:15:00 16.9 C 13.52 g/m*3 16.9 C 0 km/h
365 26-08-2019 06:20:00 16.8 C 13.44 g/m*3 16.8 C 0 km/h
366 26-08-2019 06:25:00 16.7 C 13.36 g/m*3 16.7 C 0 km/h
367 26-08-2019 06:30:00 16.7 C 13.5 g/m*3 16.7 C 0 km/h
368 26-08-2019 06:35:00 16.8 C 13.58 g/m*3 16.8 C 0 km/h
369 26-08-2019 06:40:00 16.7 C 13.5 g/m*3 16.7 C 0 km/h
370 26-08-2019 06:45:00 16.7 C 13.36 g/m*3 16.7 C 0 km/h
371 26-08-2019 06:50:00 16.6 C 13.28 g/m*3 16.6 C 0 km/h
372 26-08-2019 06:55:00 16.6 C 13.42 g/m*3 16.6 C 0 km/h
373 26-08-2019 07:00:00 16.6 C 13.42 g/m*3 16.6 C 0 km/h
374 26-08-2019 07:05:00 16.6 C 13.42 g/m*3 16.6 C 0 km/h
375 26-08-2019 07:10:00 16.6 C 13.42 g/m*3 16.6 C 0 km/h
Sensor: Nr:Datum:Temp:Abs-Feuchte:Windchill:Wind:
Aussen-T/F 376 26-08-2019 07:15:00 16.7 C 13.5 g/m*3 16.7 C 0 km/h
377 26-08-2019 07:20:00 16.7 C 13.5 g/m*3 16.7 C 0 km/h
378 26-08-2019 07:25:00 16.7 C 13.5 g/m*3 16.7 C 0 km/h
379 26-08-2019 07:30:00 16.7 C 13.5 g/m*3 16.7 C 0 km/h
380 26-08-2019 07:35:00 16.7 C 13.5 g/m*3 16.7 C 0 km/h
381 26-08-2019 07:40:00 16.8 C 13.58 g/m*3 16.8 C 0 km/h
382 26-08-2019 07:45:00 16.8 C 13.73 g/m*3 16.8 C 0 km/h
383 26-08-2019 07:50:00 16.8 C 13.73 g/m*3 16.8 C 0 km/h
384 26-08-2019 07:55:00 16.9 C 13.81 g/m*3 16.9 C 0 km/h
385 26-08-2019 08:00:00 17.1 C 13.97 g/m*3 17.1 C 0 km/h
386 26-08-2019 08:05:00 17.2 C 14.06 g/m*3 17.2 C 0 km/h
387 26-08-2019 08:10:00 17.2 C 14.06 g/m*3 17.2 C 0 km/h
388 26-08-2019 08:15:00 17.3 C 14.14 g/m*3 17.3 C 0 km/h
389 26-08-2019 08:20:00 17.3 C 14.14 g/m*3 17.3 C 0 km/h
390 26-08-2019 08:25:00 17.4 C 14.23 g/m*3 17.4 C 0 km/h
391 26-08-2019 08:30:00 17.5 C 14.31 g/m*3 17.5 C 0 km/h
392 26-08-2019 08:35:00 17.6 C 14.4 g/m*3 17.6 C 0 km/h
393 26-08-2019 08:40:00 17.7 C 14.48 g/m*3 17.7 C 0 km/h
394 26-08-2019 08:45:00 17.7 C 14.48 g/m*3 17.7 C 0 km/h
395 26-08-2019 08:50:00 17.8 C 14.57 g/m*3 17.8 C 0 km/h
396 26-08-2019 08:55:00 17.9 C 14.66 g/m*3 17.9 C 0 km/h
397 26-08-2019 09:00:00 17.9 C 14.66 g/m*3 17.9 C 0 km/h
398 26-08-2019 09:05:00 18.1 C 14.83 g/m*3 18.1 C 0 km/h
399 26-08-2019 09:10:00 18.2 C 14.92 g/m*3 18.2 C 0 km/h
400 26-08-2019 09:15:00 18.3 C 15.01 g/m*3 18.3 C 0 km/h
Sensor: Nr:Datum:Temp:Abs-Feuchte:Windchill:Wind:
Aussen-T/F 401 26-08-2019 09:20:00 18.4 C 15.1 g/m*3 18.4 C 0 km/h
402 26-08-2019 09:25:00 18.5 C 15.19 g/m*3 18.5 C 0 km/h
403 26-08-2019 09:30:00 18.6 C 15.28 g/m*3 18.6 C 0 km/h
404 26-08-2019 09:35:00 18.7 C 15.37 g/m*3 18.7 C 0 km/h
405 26-08-2019 09:40:00 18.8 C 15.46 g/m*3 18.8 C 0 km/h
406 26-08-2019 09:45:00 18.9 C 15.55 g/m*3 18.9 C 0 km/h
407 26-08-2019 09:50:00 19 C 15.48 g/m*3 19 C 0 km/h
408 26-08-2019 09:55:00 19.2 C 15.66 g/m*3 19.2 C 0 km/h
409 26-08-2019 10:00:00 19.3 C 15.76 g/m*3 19.3 C 0 km/h
410 26-08-2019 10:05:00 19.4 C 15.85 g/m*3 19.4 C 0 km/h
411 26-08-2019 10:10:00 19.4 C 15.68 g/m*3 19.4 C 0 km/h
412 26-08-2019 10:15:00 19.6 C 15.87 g/m*3 19.6 C 0 km/h
413 26-08-2019 10:20:00 19.8 C 15.89 g/m*3 19.8 C 0 km/h
414 26-08-2019 10:25:00 20 C 16.07 g/m*3 20 C 0 km/h
415 26-08-2019 10:30:00 20.2 C 16.09 g/m*3 20.2 C 0 km/h
416 26-08-2019 10:35:00 20.4 C 16.28 g/m*3 20.4 C 0 km/h
417 26-08-2019 10:40:00 20.7 C 16.38 g/m*3 20.7 C 0 km/h
418 26-08-2019 10:45:00 20.8 C 16.48 g/m*3 20.8 C 0 km/h
419 26-08-2019 10:50:00 21 C 16.49 g/m*3 21 C 0 km/h
420 26-08-2019 10:55:00 21.3 C 16.59 g/m*3 21.3 C 1.6 km/h
421 26-08-2019 11:00:00 21.6 C 16.5 g/m*3 21.6 C 3.2 km/h
422 26-08-2019 11:05:00 21.9 C 16.79 g/m*3 21.9 C 1.6 km/h
423 26-08-2019 11:10:00 22.2 C 16.88 g/m*3 22.2 C 1.6 km/h
424 26-08-2019 11:15:00 22.4 C 17.08 g/m*3 22.4 C 0 km/h
425 26-08-2019 11:20:00 22.6 C 17.08 g/m*3 22.6 C 0 km/h
Sensor: Nr:Datum:Temp:Abs-Feuchte:Windchill:Wind:
Aussen-T/F 426 26-08-2019 11:25:00 22.8 C 17.07 g/m*3 22.8 C 3.2 km/h
427 26-08-2019 11:30:00 23.1 C 17.16 g/m*3 23.1 C 0 km/h
428 26-08-2019 11:35:00 23.3 C 17.35 g/m*3 23.3 C 0 km/h
429 26-08-2019 11:40:00 23.5 C 17.34 g/m*3 23.5 C 0 km/h
430 26-08-2019 11:45:00 23.7 C 17.33 g/m*3 23.7 C 0 km/h
431 26-08-2019 11:50:00 24 C 17.41 g/m*3 24 C 0 km/h
432 26-08-2019 11:55:00 24.3 C 17.7 g/m*3 24.3 C 1.6 km/h
433 26-08-2019 12:00:00 24.5 C 17.46 g/m*3 24.5 C 0 km/h
434 26-08-2019 12:05:00 24.7 C 17.65 g/m*3 24.7 C 0 km/h
435 26-08-2019 12:10:00 24.9 C 17.63 g/m*3 24.9 C 1.6 km/h
436 26-08-2019 12:15:00 25.2 C 17.46 g/m*3 25.2 C 1.6 km/h
437 26-08-2019 12:20:00 25.4 C 17.66 g/m*3 25.4 C 3.2 km/h
438 26-08-2019 12:25:00 25.6 C 17.14 g/m*3 25.6 C 1.6 km/h
439 26-08-2019 12:30:00 25.8 C 17.33 g/m*3 25.8 C 1.6 km/h
440 26-08-2019 12:35:00 26 C 17.29 g/m*3 26 C 1.6 km/h
441 26-08-2019 12:40:00 26.2 C 17.23 g/m*3 26.2 C 1.6 km/h
442 26-08-2019 12:45:00 26.5 C 17.52 g/m*3 26.5 C 4.8 km/h
443 26-08-2019 12:50:00 26.8 C 17.56 g/m*3 26.8 C 4.8 km/h
444 26-08-2019 12:55:00 26.9 C 17.15 g/m*3 26.9 C 0 km/h
445 26-08-2019 13:00:00 27.2 C 17.43 g/m*3 27.2 C 1.6 km/h
446 26-08-2019 13:05:00 27.4 C 17.1 g/m*3 27.4 C 1.6 km/h
447 26-08-2019 13:10:00 27.6 C 17.29 g/m*3 27.6 C 1.6 km/h
448 26-08-2019 13:15:00 27.8 C 16.95 g/m*3 27.8 C 4.8 km/h
449 26-08-2019 13:20:00 28 C 17.13 g/m*3 28 C 4.8 km/h
450 26-08-2019 13:25:00 28.2 C 16.77 g/m*3 28.2 C 6.4 km/h
Sensor: Nr:Datum:Temp:Abs-Feuchte:Windchill:Wind:
Aussen-T/F 451 26-08-2019 13:30:00 28.5 C 16.21 g/m*3 28.5 C 8.1 km/h
452 26-08-2019 13:35:00 28.7 C 16.39 g/m*3 28.7 C 6.4 km/h
453 26-08-2019 13:40:00 28.8 C 15.91 g/m*3 28.8 C 6.4 km/h
454 26-08-2019 13:45:00 28.9 C 16.28 g/m*3 28.9 C 6.4 km/h
455 26-08-2019 13:50:00 29.2 C 16.26 g/m*3 29.2 C 6.4 km/h
456 26-08-2019 13:55:00 29.3 C 16.06 g/m*3 29.3 C 6.4 km/h
457 26-08-2019 14:00:00 29.4 C 15.85 g/m*3 29.4 C 4.8 km/h
458 26-08-2019 14:05:00 29.6 C 16.32 g/m*3 29.6 C 6.4 km/h
459 26-08-2019 14:10:00 29.7 C 15.81 g/m*3 29.7 C 6.4 km/h
460 26-08-2019 14:15:00 29.7 C 15.51 g/m*3 29.7 C 1.6 km/h
461 26-08-2019 14:20:00 29.8 C 15.6 g/m*3 29.8 C 4.8 km/h
462 26-08-2019 14:25:00 29.9 C 15.99 g/m*3 29.9 C 3.2 km/h
463 26-08-2019 14:30:00 30 C 15.77 g/m*3 30 C 3.2 km/h
464 26-08-2019 14:35:00 30.1 C 16.16 g/m*3 30.1 C 3.2 km/h
465 26-08-2019 14:40:00 30.2 C 16.25 g/m*3 30.2 C 9.7 km/h
466 26-08-2019 14:45:00 30.4 C 16.42 g/m*3 30.4 C 6.4 km/h
467 26-08-2019 14:50:00 30.6 C 16.29 g/m*3 30.6 C 8.1 km/h
468 26-08-2019 14:55:00 30.8 C 15.83 g/m*3 30.8 C 3.2 km/h
469 26-08-2019 15:00:00 30.9 C 15.92 g/m*3 30.9 C 1.6 km/h
470 26-08-2019 15:05:00 31.2 C 15.53 g/m*3 31.2 C 6.4 km/h
471 26-08-2019 15:10:00 31.4 C 15.04 g/m*3 31.4 C 6.4 km/h
472 26-08-2019 15:15:00 31.6 C 15.2 g/m*3 31.6 C 11.3 km/h
473 26-08-2019 15:20:00 31.6 C 15.86 g/m*3 31.6 C 3.2 km/h
474 26-08-2019 15:25:00 31.5 C 15.45 g/m*3 31.5 C 6.4 km/h
475 26-08-2019 15:30:00 31.2 C 15.85 g/m*3 31.2 C 8.1 km/h
Sensor: Nr:Datum:Temp:Abs-Feuchte:Windchill:Wind:
Aussen-T/F 476 26-08-2019 15:35:00 30.9 C 15.92 g/m*3 30.9 C 1.6 km/h
477 26-08-2019 15:40:00 30.6 C 16.91 g/m*3 30.6 C 3.2 km/h
478 26-08-2019 15:45:00 30.2 C 17.47 g/m*3 30.2 C 4.8 km/h
479 26-08-2019 15:50:00 29.8 C 16.5 g/m*3 29.8 C 4.8 km/h
480 26-08-2019 15:55:00 29.4 C 16.44 g/m*3 29.4 C 1.6 km/h
481 26-08-2019 16:00:00 29.2 C 16.55 g/m*3 29.2 C 4.8 km/h
482 26-08-2019 16:05:00 29 C 16.66 g/m*3 29 C 3.2 km/h
483 26-08-2019 16:10:00 28.8 C 16.48 g/m*3 28.8 C 3.2 km/h
484 26-08-2019 16:15:00 28.7 C 16.39 g/m*3 28.7 C 0 km/h
485 26-08-2019 16:20:00 28.6 C 16.58 g/m*3 28.6 C 0 km/h
486 26-08-2019 16:25:00 28.6 C 16.58 g/m*3 28.6 C 1.6 km/h
487 26-08-2019 16:30:00 28.4 C 16.12 g/m*3 28.4 C 1.6 km/h
488 26-08-2019 16:35:00 28.3 C 16.03 g/m*3 28.3 C 1.6 km/h
489 26-08-2019 16:40:00 28.3 C 16.86 g/m*3 28.3 C 0 km/h
490 26-08-2019 16:45:00 28.3 C 17.42 g/m*3 28.3 C 0 km/h
491 26-08-2019 16:50:00 28.2 C 16.5 g/m*3 28.2 C 4.8 km/h
492 26-08-2019 16:55:00 28.2 C 16.77 g/m*3 28.2 C 3.2 km/h
493 26-08-2019 17:00:00 28.2 C 18.15 g/m*3 28.2 C 0 km/h
494 26-08-2019 17:05:00 28.2 C 18.42 g/m*3 28.2 C 0 km/h
495 26-08-2019 17:10:00 28.1 C 18.32 g/m*3 28.1 C 0 km/h
496 26-08-2019 17:15:00 28 C 18.22 g/m*3 28 C 0 km/h
497 26-08-2019 17:20:00 27.8 C 17.75 g/m*3 27.8 C 0 km/h
498 26-08-2019 17:25:00 27.5 C 17.46 g/m*3 27.5 C 0 km/h
499 26-08-2019 17:30:00 27.3 C 17.53 g/m*3 27.3 C 0 km/h
500 26-08-2019 17:35:00 27.2 C 17.7 g/m*3 27.2 C 0 km/h
Sensor: Nr:Datum:Temp:Abs-Feuchte:Windchill:Wind:
Aussen-T/F 501 26-08-2019 17:40:00 27.1 C 17.6 g/m*3 27.1 C 0 km/h
502 26-08-2019 17:45:00 26.9 C 17.4 g/m*3 26.9 C 0 km/h
503 26-08-2019 17:50:00 26.8 C 17.31 g/m*3 26.8 C 0 km/h
504 26-08-2019 17:55:00 26.6 C 17.37 g/m*3 26.6 C 0 km/h
505 26-08-2019 18:00:00 26.5 C 17.27 g/m*3 26.5 C 0 km/h
506 26-08-2019 18:05:00 26.4 C 17.67 g/m*3 26.4 C 0 km/h
507 26-08-2019 18:10:00 26.3 C 17.58 g/m*3 26.3 C 0 km/h
508 26-08-2019 18:15:00 26.3 C 17.82 g/m*3 26.3 C 0 km/h
509 26-08-2019 18:20:00 26.4 C 17.92 g/m*3 26.4 C 0 km/h
510 26-08-2019 18:25:00 26.6 C 18.12 g/m*3 26.6 C 0 km/h
511 26-08-2019 18:30:00 26.8 C 18.33 g/m*3 26.8 C 0 km/h
512 26-08-2019 18:35:00 27.1 C 18.12 g/m*3 27.1 C 0 km/h
513 26-08-2019 18:40:00 27.6 C 18.36 g/m*3 27.6 C 0 km/h
514 26-08-2019 18:45:00 28 C 18.76 g/m*3 28 C 0 km/h
515 26-08-2019 18:50:00 28.4 C 18.9 g/m*3 28.4 C 0 km/h
516 26-08-2019 18:55:00 28.9 C 18.85 g/m*3 28.9 C 0 km/h
517 26-08-2019 19:00:00 28.9 C 18.57 g/m*3 28.9 C 0 km/h
518 26-08-2019 19:05:00 28.9 C 18.57 g/m*3 28.9 C 0 km/h
519 26-08-2019 19:10:00 28.8 C 18.47 g/m*3 28.8 C 0 km/h
520 26-08-2019 19:15:00 28.6 C 18.27 g/m*3 28.6 C 0 km/h
521 26-08-2019 19:20:00 28.4 C 18.07 g/m*3 28.4 C 0 km/h
522 26-08-2019 19:25:00 28.3 C 18.25 g/m*3 28.3 C 0 km/h
523 26-08-2019 19:30:00 28.1 C 17.77 g/m*3 28.1 C 0 km/h
524 26-08-2019 19:35:00 27.9 C 17.85 g/m*3 27.9 C 0 km/h
525 26-08-2019 19:40:00 27.7 C 17.92 g/m*3 27.7 C 0 km/h
Sensor: Nr:Datum:Temp:Abs-Feuchte:Windchill:Wind:
Aussen-T/F 526 26-08-2019 19:45:00 27.3 C 17.53 g/m*3 27.3 C 0 km/h
527 26-08-2019 19:50:00 27.1 C 17.34 g/m*3 27.1 C 0 km/h
528 26-08-2019 19:55:00 26.8 C 17.56 g/m*3 26.8 C 0 km/h
529 26-08-2019 20:00:00 26.4 C 17.18 g/m*3 26.4 C 0 km/h
530 26-08-2019 20:05:00 26.2 C 17.23 g/m*3 26.2 C 0 km/h
531 26-08-2019 20:10:00 25.7 C 17 g/m*3 25.7 C 0 km/h
532 26-08-2019 20:15:00 25.4 C 16.95 g/m*3 25.4 C 0 km/h
533 26-08-2019 20:20:00 25.1 C 16.9 g/m*3 25.1 C 0 km/h
534 26-08-2019 20:25:00 24.7 C 16.52 g/m*3 24.7 C 0 km/h
535 26-08-2019 20:30:00 24.3 C 16.38 g/m*3 24.3 C 0 km/h
536 26-08-2019 20:35:00 24.1 C 16.41 g/m*3 24.1 C 0 km/h
537 26-08-2019 20:40:00 23.9 C 16.23 g/m*3 23.9 C 0 km/h
538 26-08-2019 20:45:00 23.7 C 16.26 g/m*3 23.7 C 0 km/h
539 26-08-2019 20:50:00 23.5 C 16.28 g/m*3 23.5 C 0 km/h
540 26-08-2019 20:55:00 23.3 C 16.31 g/m*3 23.3 C 0 km/h
541 26-08-2019 21:00:00 23.1 C 16.12 g/m*3 23.1 C 0 km/h
542 26-08-2019 21:05:00 23 C 16.24 g/m*3 23 C 0 km/h
543 26-08-2019 21:10:00 22.9 C 16.14 g/m*3 22.9 C 0 km/h
544 26-08-2019 21:15:00 22.8 C 16.26 g/m*3 22.8 C 0 km/h
545 26-08-2019 21:20:00 22.7 C 16.16 g/m*3 22.7 C 0 km/h
546 26-08-2019 21:25:00 22.5 C 15.98 g/m*3 22.5 C 0 km/h
547 26-08-2019 21:30:00 22.3 C 15.99 g/m*3 22.3 C 0 km/h
548 26-08-2019 21:35:00 22.2 C 15.9 g/m*3 22.2 C 0 km/h
549 26-08-2019 21:40:00 22.1 C 15.81 g/m*3 22.1 C 0 km/h
550 26-08-2019 21:45:00 22.1 C 16.01 g/m*3 22.1 C 0 km/h
Sensor: Nr:Datum:Temp:Abs-Feuchte:Windchill:Wind:
Aussen-T/F 551 26-08-2019 21:50:00 21.9 C 15.82 g/m*3 21.9 C 0 km/h
552 26-08-2019 21:55:00 21.8 C 15.92 g/m*3 21.8 C 0 km/h
553 26-08-2019 22:00:00 21.7 C 15.83 g/m*3 21.7 C 0 km/h
554 26-08-2019 22:05:00 21.5 C 15.84 g/m*3 21.5 C 0 km/h
555 26-08-2019 22:10:00 21.4 C 15.75 g/m*3 21.4 C 0 km/h
556 26-08-2019 22:15:00 21.3 C 15.66 g/m*3 21.3 C 0 km/h
557 26-08-2019 22:20:00 21.2 C 15.57 g/m*3 21.2 C 0 km/h
558 26-08-2019 22:25:00 21.1 C 15.66 g/m*3 21.1 C 0 km/h
559 26-08-2019 22:30:00 21 C 15.57 g/m*3 21 C 0 km/h
560 26-08-2019 22:35:00 20.9 C 15.48 g/m*3 20.9 C 0 km/h
561 26-08-2019 22:40:00 20.8 C 15.39 g/m*3 20.8 C 0 km/h
562 26-08-2019 22:45:00 20.8 C 15.57 g/m*3 20.8 C 0 km/h
563 26-08-2019 22:50:00 20.7 C 15.48 g/m*3 20.7 C 0 km/h
564 26-08-2019 22:55:00 20.7 C 15.48 g/m*3 20.7 C 0 km/h
565 26-08-2019 23:00:00 20.6 C 15.57 g/m*3 20.6 C 0 km/h
566 26-08-2019 23:05:00 20.5 C 15.48 g/m*3 20.5 C 0 km/h
567 26-08-2019 23:10:00 20.4 C 15.39 g/m*3 20.4 C 0 km/h
568 26-08-2019 23:15:00 20.3 C 15.3 g/m*3 20.3 C 0 km/h
569 26-08-2019 23:20:00 20.3 C 15.3 g/m*3 20.3 C 0 km/h
570 26-08-2019 23:25:00 20.2 C 15.21 g/m*3 20.2 C 0 km/h
571 26-08-2019 23:30:00 20.1 C 15.3 g/m*3 20.1 C 0 km/h
572 26-08-2019 23:35:00 20 C 15.21 g/m*3 20 C 0 km/h
573 26-08-2019 23:40:00 19.9 C 15.29 g/m*3 19.9 C 0 km/h
574 26-08-2019 23:45:00 19.9 C 15.29 g/m*3 19.9 C 0 km/h
575 26-08-2019 23:50:00 20 C 15.38 g/m*3 20 C 1.6 km/h
Sensor: Nr:Datum:Temp:Abs-Feuchte:Windchill:Wind:
Aussen-T/F 576 26-08-2019 23:55:00 19.9 C 15.29 g/m*3 19.9 C 0 km/h
577 27-08-2019 00:00:00 19.9 C 15.29 g/m*3 19.9 C 0 km/h
578 27-08-2019 00:05:00 19.8 C 15.2 g/m*3 19.8 C 0 km/h
579 27-08-2019 00:10:00 19.7 C 15.11 g/m*3 19.7 C 0 km/h
580 27-08-2019 00:15:00 19.6 C 15.02 g/m*3 19.6 C 0 km/h
581 27-08-2019 00:20:00 19.5 C 14.94 g/m*3 19.5 C 0 km/h
582 27-08-2019 00:25:00 19.4 C 15.02 g/m*3 19.4 C 0 km/h
583 27-08-2019 00:30:00 19.3 C 14.93 g/m*3 19.3 C 0 km/h
584 27-08-2019 00:35:00 19.2 C 14.84 g/m*3 19.2 C 0 km/h
585 27-08-2019 00:40:00 19.2 C 14.84 g/m*3 19.2 C 0 km/h
586 27-08-2019 00:45:00 19.1 C 14.92 g/m*3 19.1 C 0 km/h
587 27-08-2019 00:50:00 19.1 C 14.92 g/m*3 19.1 C 0 km/h
588 27-08-2019 00:55:00 19.1 C 15.08 g/m*3 19.1 C 0 km/h
589 27-08-2019 01:00:00 19.2 C 15.17 g/m*3 19.2 C 0 km/h
590 27-08-2019 01:05:00 19.2 C 15.17 g/m*3 19.2 C 0 km/h
591 27-08-2019 01:10:00 19.2 C 15.17 g/m*3 19.2 C 0 km/h
592 27-08-2019 01:15:00 19.1 C 15.08 g/m*3 19.1 C 0 km/h
593 27-08-2019 01:20:00 19.1 C 15.08 g/m*3 19.1 C 0 km/h
594 27-08-2019 01:25:00 19.1 C 15.08 g/m*3 19.1 C 0 km/h
595 27-08-2019 01:30:00 19.1 C 15.08 g/m*3 19.1 C 0 km/h
596 27-08-2019 01:35:00 19 C 14.99 g/m*3 19 C 0 km/h
597 27-08-2019 01:40:00 18.9 C 14.9 g/m*3 18.9 C 0 km/h
598 27-08-2019 01:45:00 18.8 C 14.82 g/m*3 18.8 C 0 km/h
599 27-08-2019 01:50:00 18.8 C 14.82 g/m*3 18.8 C 0 km/h
600 27-08-2019 01:55:00 18.7 C 14.73 g/m*3 18.7 C 0 km/h
Sensor: Nr:Datum:Temp:Abs-Feuchte:Windchill:Wind:
Aussen-T/F 601 27-08-2019 02:00:00 18.7 C 14.73 g/m*3 18.7 C 0 km/h
602 27-08-2019 02:05:00 18.6 C 14.64 g/m*3 18.6 C 0 km/h
603 27-08-2019 02:10:00 18.5 C 14.71 g/m*3 18.5 C 0 km/h
604 27-08-2019 02:15:00 18.5 C 14.71 g/m*3 18.5 C 0 km/h
605 27-08-2019 02:20:00 18.5 C 14.71 g/m*3 18.5 C 0 km/h
606 27-08-2019 02:25:00 18.4 C 14.63 g/m*3 18.4 C 0 km/h
607 27-08-2019 02:30:00 18.4 C 14.63 g/m*3 18.4 C 0 km/h
608 27-08-2019 02:35:00 18.3 C 14.54 g/m*3 18.3 C 0 km/h
609 27-08-2019 02:40:00 18.3 C 14.54 g/m*3 18.3 C 0 km/h
610 27-08-2019 02:45:00 18.2 C 14.46 g/m*3 18.2 C 0 km/h
611 27-08-2019 02:50:00 18.2 C 14.46 g/m*3 18.2 C 0 km/h
612 27-08-2019 02:55:00 18.1 C 14.37 g/m*3 18.1 C 0 km/h
613 27-08-2019 03:00:00 18.1 C 14.52 g/m*3 18.1 C 0 km/h
614 27-08-2019 03:05:00 18.1 C 14.37 g/m*3 18.1 C 0 km/h
615 27-08-2019 03:10:00 17.9 C 14.35 g/m*3 17.9 C 0 km/h
616 27-08-2019 03:15:00 17.9 C 14.35 g/m*3 17.9 C 0 km/h
617 27-08-2019 03:20:00 17.8 C 14.27 g/m*3 17.8 C 0 km/h
618 27-08-2019 03:25:00 17.8 C 14.27 g/m*3 17.8 C 0 km/h
619 27-08-2019 03:30:00 17.9 C 14.35 g/m*3 17.9 C 0 km/h
620 27-08-2019 03:35:00 17.9 C 14.35 g/m*3 17.9 C 0 km/h
621 27-08-2019 03:40:00 17.9 C 14.35 g/m*3 17.9 C 0 km/h
622 27-08-2019 03:45:00 17.9 C 14.35 g/m*3 17.9 C 0 km/h
623 27-08-2019 03:50:00 17.9 C 14.5 g/m*3 17.9 C 1.6 km/h
624 27-08-2019 03:55:00 17.9 C 14.5 g/m*3 17.9 C 0 km/h
625 27-08-2019 04:00:00 17.9 C 14.5 g/m*3 17.9 C 0 km/h
Sensor: Nr:Datum:Temp:Abs-Feuchte:Windchill:Wind:
Aussen-T/F 626 27-08-2019 04:05:00 17.8 C 14.27 g/m*3 17.8 C 0 km/h
627 27-08-2019 04:10:00 17.8 C 14.27 g/m*3 17.8 C 0 km/h
628 27-08-2019 04:15:00 17.7 C 14.18 g/m*3 17.7 C 0 km/h
629 27-08-2019 04:20:00 17.7 C 14.18 g/m*3 17.7 C 0 km/h
630 27-08-2019 04:25:00 17.6 C 14.1 g/m*3 17.6 C 0 km/h
631 27-08-2019 04:30:00 17.5 C 14.01 g/m*3 17.5 C 0 km/h
632 27-08-2019 04:35:00 17.4 C 14.08 g/m*3 17.4 C 0 km/h
633 27-08-2019 04:40:00 17.4 C 13.93 g/m*3 17.4 C 0 km/h
634 27-08-2019 04:45:00 17.4 C 14.08 g/m*3 17.4 C 0 km/h
635 27-08-2019 04:50:00 17.3 C 13.85 g/m*3 17.3 C 0 km/h
636 27-08-2019 04:55:00 17.2 C 13.77 g/m*3 17.2 C 0 km/h
637 27-08-2019 05:00:00 17.2 C 13.91 g/m*3 17.2 C 0 km/h
638 27-08-2019 05:05:00 17.2 C 13.91 g/m*3 17.2 C 0 km/h
639 27-08-2019 05:10:00 17.1 C 13.83 g/m*3 17.1 C 0 km/h
640 27-08-2019 05:15:00 17.1 C 13.83 g/m*3 17.1 C 0 km/h
641 27-08-2019 05:20:00 17.1 C 13.83 g/m*3 17.1 C 0 km/h
642 27-08-2019 05:25:00 17.2 C 13.91 g/m*3 17.2 C 0 km/h
643 27-08-2019 05:30:00 17.3 C 14 g/m*3 17.3 C 0 km/h
644 27-08-2019 05:35:00 17.3 C 14 g/m*3 17.3 C 0 km/h
645 27-08-2019 05:40:00 17.2 C 13.91 g/m*3 17.2 C 0 km/h
646 27-08-2019 05:45:00 17.1 C 13.83 g/m*3 17.1 C 0 km/h
647 27-08-2019 05:50:00 17.1 C 13.83 g/m*3 17.1 C 0 km/h
648 27-08-2019 05:55:00 17 C 13.75 g/m*3 17 C 0 km/h
649 27-08-2019 06:00:00 17 C 13.75 g/m*3 17 C 0 km/h
650 27-08-2019 06:05:00 16.9 C 13.66 g/m*3 16.9 C 0 km/h
Sensor: Nr:Datum:Temp:Abs-Feuchte:Windchill:Wind:
Aussen-T/F 651 27-08-2019 06:10:00 16.8 C 13.58 g/m*3 16.8 C 0 km/h
652 27-08-2019 06:15:00 16.8 C 13.58 g/m*3 16.8 C 0 km/h
653 27-08-2019 06:20:00 16.8 C 13.58 g/m*3 16.8 C 0 km/h
654 27-08-2019 06:25:00 16.9 C 13.81 g/m*3 16.9 C 0 km/h
655 27-08-2019 06:30:00 16.8 C 13.73 g/m*3 16.8 C 0 km/h
656 27-08-2019 06:35:00 16.7 C 13.5 g/m*3 16.7 C 0 km/h
657 27-08-2019 06:40:00 16.7 C 13.5 g/m*3 16.7 C 0 km/h
658 27-08-2019 06:45:00 16.7 C 13.5 g/m*3 16.7 C 0 km/h
659 27-08-2019 06:50:00 16.7 C 13.64 g/m*3 16.7 C 0 km/h
660 27-08-2019 06:55:00 16.7 C 13.64 g/m*3 16.7 C 0 km/h
661 27-08-2019 07:00:00 16.9 C 13.81 g/m*3 16.9 C 0 km/h
662 27-08-2019 07:05:00 16.9 C 13.81 g/m*3 16.9 C 0 km/h
663 27-08-2019 07:10:00 16.9 C 13.81 g/m*3 16.9 C 0 km/h
664 27-08-2019 07:15:00 16.9 C 13.81 g/m*3 16.9 C 0 km/h
665 27-08-2019 07:20:00 16.9 C 13.81 g/m*3 16.9 C 0 km/h
666 27-08-2019 07:25:00 16.9 C 13.81 g/m*3 16.9 C 0 km/h
667 27-08-2019 07:30:00 16.8 C 13.73 g/m*3 16.8 C 0 km/h
668 27-08-2019 07:35:00 16.8 C 13.73 g/m*3 16.8 C 0 km/h
669 27-08-2019 07:40:00 16.8 C 13.73 g/m*3 16.8 C 0 km/h
670 27-08-2019 07:45:00 16.8 C 13.73 g/m*3 16.8 C 0 km/h
671 27-08-2019 07:50:00 16.8 C 13.73 g/m*3 16.8 C 0 km/h
672 27-08-2019 07:55:00 16.8 C 13.73 g/m*3 16.8 C 0 km/h
673 27-08-2019 08:00:00 16.9 C 13.81 g/m*3 16.9 C 0 km/h
674 27-08-2019 08:05:00 17 C 13.89 g/m*3 17 C 0 km/h
675 27-08-2019 08:10:00 17.1 C 13.97 g/m*3 17.1 C 0 km/h
Sensor: Nr:Datum:Temp:Abs-Feuchte:Windchill:Wind:
Aussen-T/F 676 27-08-2019 08:15:00 17.2 C 14.06 g/m*3 17.2 C 0 km/h
677 27-08-2019 08:20:00 17.2 C 14.06 g/m*3 17.2 C 0 km/h
678 27-08-2019 08:25:00 17.2 C 14.06 g/m*3 17.2 C 0 km/h
679 27-08-2019 08:30:00 17.3 C 14.29 g/m*3 17.3 C 0 km/h
680 27-08-2019 08:35:00 17.4 C 14.38 g/m*3 17.4 C 0 km/h
681 27-08-2019 08:40:00 17.5 C 14.46 g/m*3 17.5 C 0 km/h
682 27-08-2019 08:45:00 17.6 C 14.55 g/m*3 17.6 C 0 km/h
683 27-08-2019 08:50:00 17.7 C 14.64 g/m*3 17.7 C 0 km/h
684 27-08-2019 08:55:00 17.8 C 14.72 g/m*3 17.8 C 0 km/h
685 27-08-2019 09:00:00 17.8 C 14.72 g/m*3 17.8 C 0 km/h
686 27-08-2019 09:05:00 17.9 C 14.81 g/m*3 17.9 C 0 km/h
687 27-08-2019 09:10:00 18.1 C 14.99 g/m*3 18.1 C 0 km/h
688 27-08-2019 09:15:00 18.2 C 15.08 g/m*3 18.2 C 0 km/h
689 27-08-2019 09:20:00 18.2 C 15.08 g/m*3 18.2 C 0 km/h
690 27-08-2019 09:25:00 18.3 C 15.17 g/m*3 18.3 C 0 km/h
691 27-08-2019 09:30:00 18.4 C 15.26 g/m*3 18.4 C 0 km/h
692 27-08-2019 09:35:00 18.6 C 15.44 g/m*3 18.6 C 0 km/h
693 27-08-2019 09:40:00 18.7 C 15.53 g/m*3 18.7 C 0 km/h
694 27-08-2019 09:45:00 18.8 C 15.62 g/m*3 18.8 C 0 km/h
695 27-08-2019 09:50:00 18.9 C 15.71 g/m*3 18.9 C 0 km/h
696 27-08-2019 09:55:00 18.9 C 15.71 g/m*3 18.9 C 0 km/h
697 27-08-2019 10:00:00 19.1 C 15.9 g/m*3 19.1 C 0 km/h
698 27-08-2019 10:05:00 19.2 C 15.99 g/m*3 19.2 C 0 km/h
699 27-08-2019 10:10:00 19.3 C 16.09 g/m*3 19.3 C 0 km/h
700 27-08-2019 10:15:00 19.4 C 16.02 g/m*3 19.4 C 0 km/h
Sensor: Nr:Datum:Temp:Abs-Feuchte:Windchill:Wind:
Aussen-T/F 701 27-08-2019 10:20:00 19.5 C 16.28 g/m*3 19.5 C 0 km/h
702 27-08-2019 10:25:00 19.7 C 16.3 g/m*3 19.7 C 0 km/h
703 27-08-2019 10:30:00 19.8 C 16.4 g/m*3 19.8 C 0 km/h
704 27-08-2019 10:35:00 19.9 C 16.49 g/m*3 19.9 C 0 km/h
705 27-08-2019 10:40:00 20.1 C 16.69 g/m*3 20.1 C 0 km/h
706 27-08-2019 10:45:00 20.3 C 16.71 g/m*3 20.3 C 0 km/h
707 27-08-2019 10:50:00 20.4 C 16.81 g/m*3 20.4 C 0 km/h
708 27-08-2019 10:55:00 20.7 C 17.1 g/m*3 20.7 C 0 km/h
709 27-08-2019 11:00:00 20.9 C 17.12 g/m*3 20.9 C 0 km/h
710 27-08-2019 11:05:00 21.2 C 17.42 g/m*3 21.2 C 0 km/h
711 27-08-2019 11:10:00 21.4 C 17.44 g/m*3 21.4 C 0 km/h
712 27-08-2019 11:15:00 21.7 C 17.55 g/m*3 21.7 C 0 km/h
713 27-08-2019 11:20:00 21.9 C 17.75 g/m*3 21.9 C 0 km/h
714 27-08-2019 11:25:00 22.2 C 17.87 g/m*3 22.2 C 0 km/h
715 27-08-2019 11:30:00 22.4 C 17.68 g/m*3 22.4 C 0 km/h
716 27-08-2019 11:35:00 22.7 C 17.78 g/m*3 22.7 C 0 km/h
717 27-08-2019 11:40:00 22.9 C 17.98 g/m*3 22.9 C 0 km/h
718 27-08-2019 11:45:00 23.1 C 18.19 g/m*3 23.1 C 0 km/h
719 27-08-2019 11:50:00 23.3 C 18.19 g/m*3 23.3 C 0 km/h
720 27-08-2019 11:55:00 23.6 C 18.5 g/m*3 23.6 C 0 km/h
721 27-08-2019 12:00:00 23.8 C 18.5 g/m*3 23.8 C 0 km/h
722 27-08-2019 12:05:00 24 C 18.28 g/m*3 24 C 0 km/h
723 27-08-2019 12:10:00 24.2 C 18.26 g/m*3 24.2 C 0 km/h
724 27-08-2019 12:15:00 24.6 C 18.23 g/m*3 24.6 C 0 km/h
725 27-08-2019 12:20:00 24.9 C 18.08 g/m*3 24.9 C 0 km/h
Sensor: Nr:Datum:Temp:Abs-Feuchte:Windchill:Wind:
Aussen-T/F 726 27-08-2019 12:25:00 25.2 C 18.62 g/m*3 25.2 C 0 km/h
727 27-08-2019 12:30:00 25.4 C 17.19 g/m*3 25.4 C 0 km/h
728 27-08-2019 12:35:00 25.8 C 18.3 g/m*3 25.8 C 0 km/h
729 27-08-2019 12:40:00 26.2 C 16.99 g/m*3 26.2 C 0 km/h
730 27-08-2019 12:45:00 26.7 C 17.21 g/m*3 26.7 C 0 km/h
731 27-08-2019 12:50:00 26.9 C 16.64 g/m*3 26.9 C 0 km/h
732 27-08-2019 12:55:00 27.3 C 18.58 g/m*3 27.3 C 0 km/h
733 27-08-2019 13:00:00 27.4 C 17.1 g/m*3 27.4 C 3.2 km/h
734 27-08-2019 13:05:00 27.8 C 16.68 g/m*3 27.8 C 3.2 km/h
735 27-08-2019 13:10:00 28.2 C 16.22 g/m*3 28.2 C 1.6 km/h
736 27-08-2019 13:15:00 28.6 C 16.02 g/m*3 28.6 C 1.6 km/h
737 27-08-2019 13:20:00 29 C 16.37 g/m*3 29 C 1.6 km/h
738 27-08-2019 13:25:00 29.3 C 16.93 g/m*3 29.3 C 0 km/h
739 27-08-2019 13:30:00 29.5 C 16.82 g/m*3 29.5 C 1.6 km/h
740 27-08-2019 13:35:00 29.6 C 16.91 g/m*3 29.6 C 0 km/h
741 27-08-2019 13:40:00 29.6 C 16.62 g/m*3 29.6 C 0 km/h
742 27-08-2019 13:45:00 29.6 C 16.02 g/m*3 29.6 C 0 km/h
743 27-08-2019 13:50:00 29.6 C 15.13 g/m*3 29.6 C 0 km/h
744 27-08-2019 13:55:00 29.7 C 15.22 g/m*3 29.7 C 0 km/h
745 27-08-2019 14:00:00 29.9 C 15.99 g/m*3 29.9 C 1.6 km/h
746 27-08-2019 14:05:00 30 C 15.47 g/m*3 30 C 1.6 km/h
747 27-08-2019 14:10:00 30.1 C 15.55 g/m*3 30.1 C 0 km/h
748 27-08-2019 14:15:00 30.2 C 15.02 g/m*3 30.2 C 0 km/h
749 27-08-2019 14:20:00 30.3 C 15.1 g/m*3 30.3 C 0 km/h
750 27-08-2019 14:25:00 30.4 C 15.49 g/m*3 30.4 C 0 km/h
Sensor: Nr:Datum:Temp:Abs-Feuchte:Windchill:Wind:
Aussen-T/F 751 27-08-2019 14:30:00 30.6 C 15.03 g/m*3 30.6 C 0 km/h
752 27-08-2019 14:35:00 30.8 C 15.51 g/m*3 30.8 C 3.2 km/h
753 27-08-2019 14:40:00 30.9 C 14.96 g/m*3 30.9 C 1.6 km/h
754 27-08-2019 14:45:00 31 C 15.36 g/m*3 31 C 4.8 km/h
755 27-08-2019 14:50:00 31.1 C 16.41 g/m*3 31.1 C 4.8 km/h
756 27-08-2019 14:55:00 31.2 C 14.56 g/m*3 31.2 C 6.4 km/h
757 27-08-2019 15:00:00 31.4 C 14.71 g/m*3 31.4 C 0 km/h
758 27-08-2019 15:05:00 31.4 C 14.06 g/m*3 31.4 C 1.6 km/h
759 27-08-2019 15:10:00 31.6 C 14.87 g/m*3 31.6 C 9.7 km/h
760 27-08-2019 15:15:00 31.6 C 14.87 g/m*3 31.6 C 9.7 km/h
761 27-08-2019 15:20:00 31.7 C 15.28 g/m*3 31.7 C 3.2 km/h
762 27-08-2019 15:25:00 31.8 C 14.03 g/m*3 31.8 C 8.1 km/h
763 27-08-2019 15:30:00 31.9 C 14.1 g/m*3 31.9 C 3.2 km/h
764 27-08-2019 15:35:00 32.1 C 14.25 g/m*3 32.1 C 4.8 km/h
765 27-08-2019 15:40:00 32.2 C 13.99 g/m*3 32.2 C 3.2 km/h
766 27-08-2019 15:45:00 32.2 C 14.33 g/m*3 32.2 C 6.4 km/h
767 27-08-2019 15:50:00 32.3 C 14.06 g/m*3 32.3 C 4.8 km/h
768 27-08-2019 15:55:00 32.5 C 14.91 g/m*3 32.5 C 4.8 km/h
769 27-08-2019 16:00:00 32.6 C 13.94 g/m*3 32.6 C 6.4 km/h
770 27-08-2019 16:05:00 32.6 C 14.64 g/m*3 32.6 C 6.4 km/h
771 27-08-2019 16:10:00 32.7 C 14.72 g/m*3 32.7 C 3.2 km/h
772 27-08-2019 16:15:00 32.8 C 14.44 g/m*3 32.8 C 4.8 km/h
773 27-08-2019 16:20:00 33 C 16.02 g/m*3 33 C 3.2 km/h
774 27-08-2019 16:25:00 33.2 C 14.75 g/m*3 33.2 C 8.1 km/h
775 27-08-2019 16:30:00 33.3 C 14.83 g/m*3 33.3 C 8.1 km/h
Sensor: Nr:Datum:Temp:Abs-Feuchte:Windchill:Wind:
Aussen-T/F 776 27-08-2019 16:35:00 33.3 C 14.47 g/m*3 33.3 C 3.2 km/h
777 27-08-2019 16:40:00 33.5 C 16.45 g/m*3 33.5 C 1.6 km/h
778 27-08-2019 16:45:00 33.7 C 15.88 g/m*3 33.7 C 3.2 km/h
779 27-08-2019 16:50:00 33.9 C 15.68 g/m*3 33.9 C 3.2 km/h
780 27-08-2019 16:55:00 34.2 C 14.41 g/m*3 34.2 C 0 km/h
781 27-08-2019 17:00:00 34.3 C 16.77 g/m*3 34.3 C 0 km/h
782 27-08-2019 17:05:00 34.3 C 14.48 g/m*3 34.3 C 4.8 km/h
783 27-08-2019 17:10:00 34.2 C 14.41 g/m*3 34.2 C 4.8 km/h
784 27-08-2019 17:15:00 33.9 C 14.93 g/m*3 33.9 C 3.2 km/h
785 27-08-2019 17:20:00 33.6 C 17.27 g/m*3 33.6 C 1.6 km/h
786 27-08-2019 17:25:00 33.1 C 16.82 g/m*3 33.1 C 0 km/h
787 27-08-2019 17:30:00 32.4 C 16.9 g/m*3 32.4 C 1.6 km/h
788 27-08-2019 17:35:00 31.6 C 16.85 g/m*3 31.6 C 0 km/h
789 27-08-2019 17:40:00 30.9 C 16.87 g/m*3 30.9 C 0 km/h
790 27-08-2019 17:45:00 30.3 C 16.64 g/m*3 30.3 C 0 km/h
791 27-08-2019 17:50:00 29.7 C 16.11 g/m*3 29.7 C 0 km/h
792 27-08-2019 17:55:00 29.2 C 15.97 g/m*3 29.2 C 1.6 km/h
793 27-08-2019 18:00:00 28.7 C 15.82 g/m*3 28.7 C 0 km/h
794 27-08-2019 18:05:00 28.4 C 15.84 g/m*3 28.4 C 1.6 km/h
795 27-08-2019 18:10:00 28.2 C 16.22 g/m*3 28.2 C 1.6 km/h
796 27-08-2019 18:15:00 28.3 C 16.86 g/m*3 28.3 C 0 km/h
797 27-08-2019 18:20:00 28.7 C 17.52 g/m*3 28.7 C 0 km/h
798 27-08-2019 18:25:00 29.2 C 17.71 g/m*3 29.2 C 0 km/h
799 27-08-2019 18:30:00 29.9 C 17.19 g/m*3 29.9 C 4.8 km/h
800 27-08-2019 18:35:00 30.5 C 15.58 g/m*3 30.5 C 4.8 km/h
Sensor: Nr:Datum:Temp:Abs-Feuchte:Windchill:Wind:
Aussen-T/F 801 27-08-2019 18:40:00 30.9 C 17.51 g/m*3 30.9 C 1.6 km/h
802 27-08-2019 18:45:00 30.9 C 17.51 g/m*3 30.9 C 0 km/h
803 27-08-2019 18:50:00 30.7 C 17.32 g/m*3 30.7 C 0 km/h
804 27-08-2019 18:55:00 30.3 C 17.57 g/m*3 30.3 C 0 km/h
805 27-08-2019 19:00:00 30 C 17.29 g/m*3 30 C 0 km/h
806 27-08-2019 19:05:00 29.6 C 16.91 g/m*3 29.6 C 0 km/h
807 27-08-2019 19:10:00 29.1 C 15.88 g/m*3 29.1 C 9.7 km/h
808 27-08-2019 19:15:00 28.9 C 15.14 g/m*3 28.9 C 12.9 km/h
809 27-08-2019 19:20:00 28.8 C 15.91 g/m*3 28.8 C 3.2 km/h
810 27-08-2019 19:25:00 28.4 C 16.4 g/m*3 28.4 C 9.7 km/h
811 27-08-2019 19:30:00 27.7 C 17.39 g/m*3 27.7 C 4.8 km/h
812 27-08-2019 19:35:00 27.1 C 17.86 g/m*3 27.1 C 1.6 km/h
813 27-08-2019 19:40:00 26.4 C 17.67 g/m*3 26.4 C 6.4 km/h
814 27-08-2019 19:45:00 25.9 C 17.43 g/m*3 25.9 C 3.2 km/h
815 27-08-2019 19:50:00 25.5 C 17.76 g/m*3 25.5 C 3.2 km/h
816 27-08-2019 19:55:00 25 C 17.73 g/m*3 25 C 8.1 km/h
817 27-08-2019 20:00:00 24.7 C 18.11 g/m*3 24.7 C 0 km/h
818 27-08-2019 20:05:00 24.6 C 18.23 g/m*3 24.6 C 4.8 km/h
819 27-08-2019 20:10:00 24.3 C 17.92 g/m*3 24.3 C 0 km/h
820 27-08-2019 20:15:00 24.1 C 17.5 g/m*3 24.1 C 0 km/h
821 27-08-2019 20:20:00 23.9 C 17.52 g/m*3 23.9 C 0 km/h
822 27-08-2019 20:25:00 23.6 C 17.23 g/m*3 23.6 C 0 km/h
823 27-08-2019 20:30:00 23.3 C 17.14 g/m*3 23.3 C 1.6 km/h
824 27-08-2019 20:35:00 23.1 C 16.95 g/m*3 23.1 C 0 km/h
825 27-08-2019 20:40:00 22.8 C 16.87 g/m*3 22.8 C 0 km/h
Sensor: Nr:Datum:Temp:Abs-Feuchte:Windchill:Wind:
Aussen-T/F 826 27-08-2019 20:45:00 22.7 C 16.77 g/m*3 22.7 C 0 km/h
827 27-08-2019 20:50:00 22.6 C 16.87 g/m*3 22.6 C 0 km/h
828 27-08-2019 20:55:00 22.4 C 16.68 g/m*3 22.4 C 0 km/h
829 27-08-2019 21:00:00 22.3 C 16.59 g/m*3 22.3 C 0 km/h
830 27-08-2019 21:05:00 22.2 C 16.3 g/m*3 22.2 C 0 km/h
831 27-08-2019 21:10:00 22.1 C 16.4 g/m*3 22.1 C 1.6 km/h
832 27-08-2019 21:15:00 22.2 C 16.88 g/m*3 22.2 C 1.6 km/h
833 27-08-2019 21:20:00 22.2 C 16.88 g/m*3 22.2 C 1.6 km/h
834 27-08-2019 21:25:00 22.3 C 16.98 g/m*3 22.3 C 0 km/h
835 27-08-2019 21:30:00 22.2 C 16.69 g/m*3 22.2 C 0 km/h
836 27-08-2019 21:35:00 22.2 C 16.49 g/m*3 22.2 C 0 km/h
837 27-08-2019 21:40:00 22 C 16.3 g/m*3 22 C 0 km/h
838 27-08-2019 21:45:00 21.9 C 16.4 g/m*3 21.9 C 0 km/h
839 27-08-2019 21:50:00 21.8 C 16.12 g/m*3 21.8 C 0 km/h
840 27-08-2019 21:55:00 21.7 C 16.02 g/m*3 21.7 C 0 km/h
841 27-08-2019 22:00:00 21.6 C 15.93 g/m*3 21.6 C 0 km/h
842 27-08-2019 22:05:00 21.4 C 15.94 g/m*3 21.4 C 0 km/h
843 27-08-2019 22:10:00 21.3 C 16.03 g/m*3 21.3 C 0 km/h
844 27-08-2019 22:15:00 21.4 C 16.5 g/m*3 21.4 C 0 km/h
845 27-08-2019 22:20:00 21.3 C 16.22 g/m*3 21.3 C 0 km/h
846 27-08-2019 22:25:00 21.2 C 15.94 g/m*3 21.2 C 0 km/h
847 27-08-2019 22:30:00 21.1 C 15.85 g/m*3 21.1 C 0 km/h
848 27-08-2019 22:35:00 20.9 C 15.66 g/m*3 20.9 C 0 km/h
849 27-08-2019 22:40:00 20.9 C 15.84 g/m*3 20.9 C 0 km/h
850 27-08-2019 22:45:00 20.9 C 15.84 g/m*3 20.9 C 0 km/h
Sensor: Nr:Datum:Temp:Abs-Feuchte:Windchill:Wind:
Aussen-T/F 851 27-08-2019 22:50:00 20.9 C 16.03 g/m*3 20.9 C 0 km/h
852 27-08-2019 22:55:00 20.8 C 15.75 g/m*3 20.8 C 0 km/h
853 27-08-2019 23:00:00 20.8 C 15.75 g/m*3 20.8 C 1.6 km/h
854 27-08-2019 23:05:00 20.7 C 15.84 g/m*3 20.7 C 0 km/h
855 27-08-2019 23:10:00 20.7 C 15.84 g/m*3 20.7 C 0 km/h
856 27-08-2019 23:15:00 20.6 C 15.75 g/m*3 20.6 C 0 km/h
857 27-08-2019 23:20:00 20.5 C 15.66 g/m*3 20.5 C 0 km/h
858 27-08-2019 23:25:00 20.5 C 15.84 g/m*3 20.5 C 0 km/h
859 27-08-2019 23:30:00 20.5 C 15.84 g/m*3 20.5 C 0 km/h
860 27-08-2019 23:35:00 20.4 C 15.57 g/m*3 20.4 C 0 km/h
861 27-08-2019 23:40:00 20.3 C 15.48 g/m*3 20.3 C 0 km/h
862 27-08-2019 23:45:00 20.2 C 15.39 g/m*3 20.2 C 0 km/h
863 27-08-2019 23:50:00 20.1 C 15.3 g/m*3 20.1 C 0 km/h
864 27-08-2019 23:55:00 19.9 C 15.29 g/m*3 19.9 C 0 km/h
865 28-08-2019 00:00:00 19.9 C 15.29 g/m*3 19.9 C 3.2 km/h
866 28-08-2019 00:05:00 20 C 15.55 g/m*3 20 C 1.6 km/h
867 28-08-2019 00:10:00 20.1 C 15.64 g/m*3 20.1 C 0 km/h
868 28-08-2019 00:15:00 20.1 C 15.64 g/m*3 20.1 C 0 km/h
869 28-08-2019 00:20:00 19.9 C 15.29 g/m*3 19.9 C 0 km/h
870 28-08-2019 00:25:00 19.9 C 15.46 g/m*3 19.9 C 0 km/h
871 28-08-2019 00:30:00 19.9 C 15.46 g/m*3 19.9 C 0 km/h
872 28-08-2019 00:35:00 19.8 C 15.37 g/m*3 19.8 C 0 km/h
873 28-08-2019 00:40:00 19.8 C 15.37 g/m*3 19.8 C 0 km/h
874 28-08-2019 00:45:00 19.8 C 15.54 g/m*3 19.8 C 0 km/h
875 28-08-2019 00:50:00 19.8 C 15.54 g/m*3 19.8 C 0 km/h
Sensor: Nr:Datum:Temp:Abs-Feuchte:Windchill:Wind:
Aussen-T/F 876 28-08-2019 00:55:00 19.8 C 15.54 g/m*3 19.8 C 0 km/h
877 28-08-2019 01:00:00 19.7 C 15.28 g/m*3 19.7 C 0 km/h
878 28-08-2019 01:05:00 19.6 C 15.36 g/m*3 19.6 C 0 km/h
879 28-08-2019 01:10:00 19.6 C 15.36 g/m*3 19.6 C 0 km/h
880 28-08-2019 01:15:00 19.5 C 15.27 g/m*3 19.5 C 0 km/h
881 28-08-2019 01:20:00 19.5 C 15.44 g/m*3 19.5 C 0 km/h
882 28-08-2019 01:25:00 19.6 C 15.53 g/m*3 19.6 C 0 km/h
883 28-08-2019 01:30:00 19.6 C 15.53 g/m*3 19.6 C 0 km/h
884 28-08-2019 01:35:00 19.6 C 15.53 g/m*3 19.6 C 0 km/h
885 28-08-2019 01:40:00 19.7 C 15.79 g/m*3 19.7 C 0 km/h
886 28-08-2019 01:45:00 19.7 C 15.79 g/m*3 19.7 C 0 km/h
887 28-08-2019 01:50:00 19.7 C 15.62 g/m*3 19.7 C 0 km/h
888 28-08-2019 01:55:00 19.6 C 15.53 g/m*3 19.6 C 0 km/h
889 28-08-2019 02:00:00 19.5 C 15.44 g/m*3 19.5 C 0 km/h
890 28-08-2019 02:05:00 19.4 C 15.35 g/m*3 19.4 C 0 km/h
891 28-08-2019 02:10:00 19.4 C 15.35 g/m*3 19.4 C 0 km/h
892 28-08-2019 02:15:00 19.3 C 15.26 g/m*3 19.3 C 0 km/h
893 28-08-2019 02:20:00 19.3 C 15.43 g/m*3 19.3 C 0 km/h
894 28-08-2019 02:25:00 19.3 C 15.43 g/m*3 19.3 C 0 km/h
895 28-08-2019 02:30:00 19.3 C 15.43 g/m*3 19.3 C 0 km/h
896 28-08-2019 02:35:00 19.2 C 15.34 g/m*3 19.2 C 0 km/h
897 28-08-2019 02:40:00 19.2 C 15.34 g/m*3 19.2 C 0 km/h
898 28-08-2019 02:45:00 19.1 C 15.25 g/m*3 19.1 C 0 km/h
899 28-08-2019 02:50:00 19 C 15.16 g/m*3 19 C 0 km/h
900 28-08-2019 02:55:00 18.9 C 15.07 g/m*3 18.9 C 0 km/h
Sensor: Nr:Datum:Temp:Abs-Feuchte:Windchill:Wind:
Aussen-T/F 901 28-08-2019 03:00:00 18.8 C 14.98 g/m*3 18.8 C 0 km/h
902 28-08-2019 03:05:00 18.8 C 14.98 g/m*3 18.8 C 0 km/h
903 28-08-2019 03:10:00 18.7 C 14.89 g/m*3 18.7 C 0 km/h
904 28-08-2019 03:15:00 18.7 C 14.89 g/m*3 18.7 C 0 km/h
905 28-08-2019 03:20:00 18.7 C 15.05 g/m*3 18.7 C 0 km/h
906 28-08-2019 03:25:00 18.7 C 15.05 g/m*3 18.7 C 0 km/h
907 28-08-2019 03:30:00 18.7 C 14.89 g/m*3 18.7 C 0 km/h
908 28-08-2019 03:35:00 18.6 C 14.8 g/m*3 18.6 C 0 km/h
909 28-08-2019 03:40:00 18.6 C 14.96 g/m*3 18.6 C 3.2 km/h
910 28-08-2019 03:45:00 18.8 C 15.14 g/m*3 18.8 C 1.6 km/h
911 28-08-2019 03:50:00 18.8 C 15.14 g/m*3 18.8 C 0 km/h
912 28-08-2019 03:55:00 18.7 C 15.05 g/m*3 18.7 C 0 km/h
913 28-08-2019 04:00:00 18.7 C 15.05 g/m*3 18.7 C 0 km/h
914 28-08-2019 04:05:00 18.6 C 14.96 g/m*3 18.6 C 0 km/h
915 28-08-2019 04:10:00 18.6 C 14.96 g/m*3 18.6 C 0 km/h
916 28-08-2019 04:15:00 18.5 C 14.87 g/m*3 18.5 C 0 km/h
917 28-08-2019 04:20:00 18.4 C 14.78 g/m*3 18.4 C 0 km/h
918 28-08-2019 04:25:00 18.3 C 14.54 g/m*3 18.3 C 0 km/h
919 28-08-2019 04:30:00 18.2 C 14.61 g/m*3 18.2 C 0 km/h
920 28-08-2019 04:35:00 18.2 C 14.61 g/m*3 18.2 C 0 km/h
921 28-08-2019 04:40:00 18.1 C 14.52 g/m*3 18.1 C 0 km/h
922 28-08-2019 04:45:00 18.1 C 14.52 g/m*3 18.1 C 0 km/h
923 28-08-2019 04:50:00 18.1 C 14.52 g/m*3 18.1 C 0 km/h
924 28-08-2019 04:55:00 18.2 C 14.61 g/m*3 18.2 C 0 km/h
925 28-08-2019 05:00:00 18.1 C 14.52 g/m*3 18.1 C 0 km/h
Sensor: Nr:Datum:Temp:Abs-Feuchte:Windchill:Wind:
Aussen-T/F 926 28-08-2019 05:05:00 18.1 C 14.52 g/m*3 18.1 C 0 km/h
927 28-08-2019 05:10:00 18.1 C 14.52 g/m*3 18.1 C 0 km/h
928 28-08-2019 05:15:00 18.1 C 14.52 g/m*3 18.1 C 0 km/h
929 28-08-2019 05:20:00 18 C 14.44 g/m*3 18 C 0 km/h
930 28-08-2019 05:25:00 17.9 C 14.35 g/m*3 17.9 C 0 km/h
931 28-08-2019 05:30:00 17.8 C 14.27 g/m*3 17.8 C 0 km/h
932 28-08-2019 05:35:00 17.9 C 14.5 g/m*3 17.9 C 0 km/h
933 28-08-2019 05:40:00 17.9 C 14.5 g/m*3 17.9 C 0 km/h
934 28-08-2019 05:45:00 17.9 C 14.5 g/m*3 17.9 C 0 km/h
935 28-08-2019 05:50:00 17.9 C 14.5 g/m*3 17.9 C 0 km/h
936 28-08-2019 05:55:00 17.9 C 14.5 g/m*3 17.9 C 0 km/h
937 28-08-2019 06:00:00 17.9 C 14.5 g/m*3 17.9 C 0 km/h
938 28-08-2019 06:05:00 17.9 C 14.5 g/m*3 17.9 C 0 km/h
939 28-08-2019 06:10:00 18 C 14.59 g/m*3 18 C 0 km/h
940 28-08-2019 06:15:00 18.2 C 14.92 g/m*3 18.2 C 0 km/h
941 28-08-2019 06:20:00 18.3 C 14.85 g/m*3 18.3 C 0 km/h
942 28-08-2019 06:25:00 18.2 C 14.77 g/m*3 18.2 C 0 km/h
943 28-08-2019 06:30:00 18.2 C 14.77 g/m*3 18.2 C 0 km/h
944 28-08-2019 06:35:00 18.1 C 14.68 g/m*3 18.1 C 0 km/h
945 28-08-2019 06:40:00 18 C 14.59 g/m*3 18 C 0 km/h
946 28-08-2019 06:45:00 17.8 C 14.42 g/m*3 17.8 C 0 km/h
947 28-08-2019 06:50:00 17.8 C 14.42 g/m*3 17.8 C 0 km/h
948 28-08-2019 06:55:00 17.8 C 14.42 g/m*3 17.8 C 0 km/h
949 28-08-2019 07:00:00 17.8 C 14.42 g/m*3 17.8 C 0 km/h
950 28-08-2019 07:05:00 17.8 C 14.42 g/m*3 17.8 C 0 km/h
Sensor: Nr:Datum:Temp:Abs-Feuchte:Windchill:Wind:
Aussen-T/F 951 28-08-2019 07:10:00 17.8 C 14.42 g/m*3 17.8 C 0 km/h
952 28-08-2019 07:15:00 17.9 C 14.5 g/m*3 17.9 C 0 km/h
953 28-08-2019 07:20:00 17.9 C 14.66 g/m*3 17.9 C 0 km/h
954 28-08-2019 07:25:00 17.9 C 14.5 g/m*3 17.9 C 0 km/h
955 28-08-2019 07:30:00 17.8 C 14.42 g/m*3 17.8 C 0 km/h
956 28-08-2019 07:35:00 17.8 C 14.42 g/m*3 17.8 C 0 km/h
957 28-08-2019 07:40:00 17.8 C 14.42 g/m*3 17.8 C 0 km/h
958 28-08-2019 07:45:00 17.8 C 14.42 g/m*3 17.8 C 0 km/h
959 28-08-2019 07:50:00 17.9 C 14.66 g/m*3 17.9 C 0 km/h
960 28-08-2019 07:55:00 18.1 C 14.83 g/m*3 18.1 C 0 km/h
961 28-08-2019 08:00:00 18.2 C 14.92 g/m*3 18.2 C 0 km/h
962 28-08-2019 08:05:00 18.3 C 15.01 g/m*3 18.3 C 0 km/h
963 28-08-2019 08:10:00 18.4 C 15.1 g/m*3 18.4 C 0 km/h
964 28-08-2019 08:15:00 18.5 C 15.19 g/m*3 18.5 C 0 km/h
965 28-08-2019 08:20:00 18.6 C 15.28 g/m*3 18.6 C 0 km/h
966 28-08-2019 08:25:00 18.7 C 15.37 g/m*3 18.7 C 0 km/h
967 28-08-2019 08:30:00 18.7 C 15.37 g/m*3 18.7 C 0 km/h
968 28-08-2019 08:35:00 18.8 C 15.46 g/m*3 18.8 C 0 km/h
969 28-08-2019 08:40:00 18.8 C 15.46 g/m*3 18.8 C 4.8 km/h
970 28-08-2019 08:45:00 18.8 C 15.3 g/m*3 18.8 C 4.8 km/h
971 28-08-2019 08:50:00 18.9 C 15.39 g/m*3 18.9 C 1.6 km/h
972 28-08-2019 08:55:00 19 C 15.48 g/m*3 19 C 0 km/h
973 28-08-2019 09:00:00 19.1 C 15.57 g/m*3 19.1 C 1.6 km/h
974 28-08-2019 09:05:00 19.1 C 15.57 g/m*3 19.1 C 4.8 km/h
975 28-08-2019 09:10:00 19.2 C 15.5 g/m*3 19.2 C 3.2 km/h
Sensor: Nr:Datum:Temp:Abs-Feuchte:Windchill:Wind:
Aussen-T/F 976 28-08-2019 09:15:00 19.3 C 15.59 g/m*3 19.3 C 4.8 km/h
977 28-08-2019 09:20:00 19.4 C 15.68 g/m*3 19.4 C 3.2 km/h
978 28-08-2019 09:25:00 19.6 C 15.87 g/m*3 19.6 C 1.6 km/h
979 28-08-2019 09:30:00 19.7 C 15.96 g/m*3 19.7 C 0 km/h
980 28-08-2019 09:35:00 19.9 C 15.98 g/m*3 19.9 C 0 km/h
981 28-08-2019 09:40:00 20.1 C 16.34 g/m*3 20.1 C 1.6 km/h
982 28-08-2019 09:45:00 20.3 C 16.18 g/m*3 20.3 C 4.8 km/h
983 28-08-2019 09:50:00 20.6 C 16.29 g/m*3 20.6 C 3.2 km/h
984 28-08-2019 09:55:00 20.8 C 16.12 g/m*3 20.8 C 4.8 km/h
985 28-08-2019 10:00:00 21.1 C 16.21 g/m*3 21.1 C 3.2 km/h
986 28-08-2019 10:05:00 21.3 C 15.84 g/m*3 21.3 C 3.2 km/h
987 28-08-2019 10:10:00 21.7 C 15.64 g/m*3 21.7 C 8.1 km/h
988 28-08-2019 10:15:00 22.2 C 15.71 g/m*3 22.2 C 8.1 km/h
989 28-08-2019 10:20:00 22.5 C 15.58 g/m*3 22.5 C 8.1 km/h
990 28-08-2019 10:25:00 22.7 C 15.56 g/m*3 22.7 C 8.1 km/h
991 28-08-2019 10:30:00 22.8 C 15.24 g/m*3 22.8 C 9.7 km/h
992 28-08-2019 10:35:00 22.9 C 15.33 g/m*3 22.9 C 11.3 km/h
993 28-08-2019 10:40:00 22.9 C 15.12 g/m*3 22.9 C 6.4 km/h
994 28-08-2019 10:45:00 23 C 15 g/m*3 23 C 8.1 km/h
995 28-08-2019 10:50:00 23.1 C 15.09 g/m*3 23.1 C 6.4 km/h
996 28-08-2019 10:55:00 23.2 C 15.18 g/m*3 23.2 C 8.1 km/h
997 28-08-2019 11:00:00 23.4 C 15.35 g/m*3 23.4 C 6.4 km/h
998 28-08-2019 11:05:00 23.6 C 15.53 g/m*3 23.6 C 6.4 km/h
999 28-08-2019 11:10:00 23.7 C 15.4 g/m*3 23.7 C 3.2 km/h
1000 28-08-2019 11:15:00 23.8 C 15.27 g/m*3 23.8 C 4.8 km/h
Sensor: Nr:Datum:Temp:Abs-Feuchte:Windchill:Wind:
Aussen-T/F 1001 28-08-2019 11:20:00 23.9 C 15.58 g/m*3 23.9 C 3.2 km/h
1002 28-08-2019 11:25:00 24.1 C 15.75 g/m*3 24.1 C 4.8 km/h
1003 28-08-2019 11:30:00 24.2 C 15.62 g/m*3 24.2 C 3.2 km/h
1004 28-08-2019 11:35:00 24.2 C 15.62 g/m*3 24.2 C 6.4 km/h
1005 28-08-2019 11:40:00 24.2 C 15.4 g/m*3 24.2 C 3.2 km/h
1006 28-08-2019 11:45:00 24.2 C 15.62 g/m*3 24.2 C 8.1 km/h
1007 28-08-2019 11:50:00 24.2 C 15.62 g/m*3 24.2 C 1.6 km/h
1008 28-08-2019 11:55:00 24.2 C 16.06 g/m*3 24.2 C 1.6 km/h
1009 28-08-2019 12:00:00 24.2 C 16.5 g/m*3 24.2 C 0 km/h
1010 28-08-2019 12:05:00 24.2 C 16.72 g/m*3 24.2 C 0 km/h
1011 28-08-2019 12:10:00 24.2 C 16.94 g/m*3 24.2 C 0 km/h
1012 28-08-2019 12:15:00 24.1 C 16.63 g/m*3 24.1 C 0 km/h
1013 28-08-2019 12:20:00 24.1 C 15.97 g/m*3 24.1 C 0 km/h
1014 28-08-2019 12:25:00 24.1 C 15.75 g/m*3 24.1 C 3.2 km/h
1015 28-08-2019 12:30:00 24.3 C 15.27 g/m*3 24.3 C 8.1 km/h
1016 28-08-2019 12:35:00 24.6 C 15.53 g/m*3 24.6 C 6.4 km/h
1017 28-08-2019 12:40:00 24.8 C 15.48 g/m*3 24.8 C 6.4 km/h
1018 28-08-2019 12:45:00 24.9 C 15.11 g/m*3 24.9 C 6.4 km/h
1019 28-08-2019 12:50:00 25.1 C 15.05 g/m*3 25.1 C 8.1 km/h
1020 28-08-2019 12:55:00 25.3 C 14.98 g/m*3 25.3 C 9.7 km/h
1021 28-08-2019 13:00:00 25.4 C 15.07 g/m*3 25.4 C 8.1 km/h
1022 28-08-2019 13:05:00 25.5 C 14.91 g/m*3 25.5 C 4.8 km/h
1023 28-08-2019 13:10:00 25.6 C 15 g/m*3 25.6 C 6.4 km/h
1024 28-08-2019 13:15:00 25.7 C 15.08 g/m*3 25.7 C 1.6 km/h
1025 28-08-2019 13:20:00 25.8 C 14.69 g/m*3 25.8 C 4.8 km/h
Sensor: Nr:Datum:Temp:Abs-Feuchte:Windchill:Wind:
Aussen-T/F 1026 28-08-2019 13:25:00 26 C 14.85 g/m*3 26 C 8.1 km/h
1027 28-08-2019 13:30:00 26.3 C 14.36 g/m*3 26.3 C 9.7 km/h
1028 28-08-2019 13:35:00 26.8 C 14.25 g/m*3 26.8 C 9.7 km/h
1029 28-08-2019 13:40:00 27.3 C 14.65 g/m*3 27.3 C 8.1 km/h
1030 28-08-2019 13:45:00 27.8 C 14.79 g/m*3 27.8 C 11.3 km/h
1031 28-08-2019 13:50:00 28.1 C 14.77 g/m*3 28.1 C 11.3 km/h
1032 28-08-2019 13:55:00 28.2 C 14.3 g/m*3 28.2 C 8.1 km/h
1033 28-08-2019 14:00:00 28.4 C 14.45 g/m*3 28.4 C 12.9 km/h
1034 28-08-2019 14:05:00 28.7 C 14.69 g/m*3 28.7 C 8.1 km/h
1035 28-08-2019 14:10:00 28.8 C 15.06 g/m*3 28.8 C 8.1 km/h
1036 28-08-2019 14:15:00 29 C 14.94 g/m*3 29 C 8.1 km/h
1037 28-08-2019 14:20:00 29.3 C 14.6 g/m*3 29.3 C 8.1 km/h
1038 28-08-2019 14:25:00 29.4 C 15.26 g/m*3 29.4 C 11.3 km/h
1039 28-08-2019 14:30:00 29.6 C 14.54 g/m*3 29.6 C 9.7 km/h
1040 28-08-2019 14:35:00 29.6 C 15.13 g/m*3 29.6 C 9.7 km/h
1041 28-08-2019 14:40:00 29.8 C 15 g/m*3 29.8 C 9.7 km/h
1042 28-08-2019 14:45:00 30.1 C 14.94 g/m*3 30.1 C 8.1 km/h
1043 28-08-2019 14:50:00 30.3 C 14.49 g/m*3 30.3 C 11.3 km/h
1044 28-08-2019 14:55:00 30.3 C 14.49 g/m*3 30.3 C 6.4 km/h
1045 28-08-2019 15:00:00 30.2 C 14.41 g/m*3 30.2 C 11.3 km/h
1046 28-08-2019 15:05:00 30.2 C 15.33 g/m*3 30.2 C 9.7 km/h
1047 28-08-2019 15:10:00 30.2 C 13.49 g/m*3 30.2 C 11.3 km/h
1048 28-08-2019 15:15:00 30.1 C 13.42 g/m*3 30.1 C 9.7 km/h
1049 28-08-2019 15:20:00 30 C 13.34 g/m*3 30 C 11.3 km/h
1050 28-08-2019 15:25:00 30.1 C 13.11 g/m*3 30.1 C 11.3 km/h
Sensor: Nr:Datum:Temp:Abs-Feuchte:Windchill:Wind:
Aussen-T/F 1051 28-08-2019 15:30:00 30.3 C 13.25 g/m*3 30.3 C 11.3 km/h
1052 28-08-2019 15:35:00 30.4 C 13.01 g/m*3 30.4 C 12.9 km/h
1053 28-08-2019 15:40:00 30.6 C 13.78 g/m*3 30.6 C 14.5 km/h
1054 28-08-2019 15:45:00 30.7 C 13.86 g/m*3 30.7 C 12.9 km/h
1055 28-08-2019 15:50:00 30.7 C 13.54 g/m*3 30.7 C 11.3 km/h
1056 28-08-2019 15:55:00 30.8 C 13.61 g/m*3 30.8 C 9.7 km/h
1057 28-08-2019 16:00:00 30.9 C 13.69 g/m*3 30.9 C 12.9 km/h
1058 28-08-2019 16:05:00 31.1 C 13.51 g/m*3 31.1 C 12.9 km/h
1059 28-08-2019 16:10:00 31.3 C 13.33 g/m*3 31.3 C 11.3 km/h
1060 28-08-2019 16:15:00 31.5 C 12.82 g/m*3 31.5 C 9.7 km/h
1061 28-08-2019 16:20:00 31.6 C 13.22 g/m*3 31.6 C 11.3 km/h
1062 28-08-2019 16:25:00 31.7 C 13.62 g/m*3 31.7 C 8.1 km/h
1063 28-08-2019 16:30:00 31.8 C 13.36 g/m*3 31.8 C 17.7 km/h
1064 28-08-2019 16:35:00 31.8 C 13.69 g/m*3 31.8 C 17.7 km/h
1065 28-08-2019 16:40:00 31.8 C 14.36 g/m*3 31.8 C 1.6 km/h
1066 28-08-2019 16:45:00 31.8 C 13.69 g/m*3 31.8 C 9.7 km/h
1067 28-08-2019 16:50:00 31.8 C 14.03 g/m*3 31.8 C 11.3 km/h
1068 28-08-2019 16:55:00 31.6 C 14.21 g/m*3 31.6 C 11.3 km/h
1069 28-08-2019 17:00:00 31.4 C 13.73 g/m*3 31.4 C 4.8 km/h
1070 28-08-2019 17:05:00 31.3 C 14.31 g/m*3 31.3 C 8.1 km/h
1071 28-08-2019 17:10:00 31.4 C 14.06 g/m*3 31.4 C 8.1 km/h
1072 28-08-2019 17:15:00 31.6 C 15.2 g/m*3 31.6 C 1.6 km/h
1073 28-08-2019 17:20:00 31.8 C 14.03 g/m*3 31.8 C 8.1 km/h
1074 28-08-2019 17:25:00 31.9 C 14.44 g/m*3 31.9 C 4.8 km/h
1075 28-08-2019 17:30:00 31.8 C 14.03 g/m*3 31.8 C 9.7 km/h
Sensor: Nr:Datum:Temp:Abs-Feuchte:Windchill:Wind:
Aussen-T/F 1076 28-08-2019 17:35:00 31.9 C 13.43 g/m*3 31.9 C 11.3 km/h
1077 28-08-2019 17:40:00 32 C 14.18 g/m*3 32 C 11.3 km/h
1078 28-08-2019 17:45:00 32.1 C 13.92 g/m*3 32.1 C 11.3 km/h
1079 28-08-2019 17:50:00 32.2 C 13.65 g/m*3 32.2 C 4.8 km/h
1080 28-08-2019 17:55:00 32.3 C 13.38 g/m*3 32.3 C 4.8 km/h
1081 28-08-2019 18:00:00 32.3 C 13.72 g/m*3 32.3 C 9.7 km/h
1082 28-08-2019 18:05:00 32.2 C 13.65 g/m*3 32.2 C 6.4 km/h
1083 28-08-2019 18:10:00 32 C 14.85 g/m*3 32 C 8.1 km/h
1084 28-08-2019 18:15:00 31.9 C 15.78 g/m*3 31.9 C 3.2 km/h
1085 28-08-2019 18:20:00 31.9 C 13.77 g/m*3 31.9 C 8.1 km/h
1086 28-08-2019 18:25:00 31.4 C 13.73 g/m*3 31.4 C 11.3 km/h
1087 28-08-2019 18:30:00 31.1 C 15.12 g/m*3 31.1 C 3.2 km/h
1088 28-08-2019 18:35:00 30.8 C 14.88 g/m*3 30.8 C 1.6 km/h
1089 28-08-2019 18:40:00 30.4 C 15.8 g/m*3 30.4 C 0 km/h
1090 28-08-2019 18:45:00 30.2 C 15.33 g/m*3 30.2 C 4.8 km/h
1091 28-08-2019 18:50:00 30.1 C 15.55 g/m*3 30.1 C 1.6 km/h
1092 28-08-2019 18:55:00 29.9 C 14.78 g/m*3 29.9 C 1.6 km/h
1093 28-08-2019 19:00:00 29.7 C 14.32 g/m*3 29.7 C 1.6 km/h
1094 28-08-2019 19:05:00 29.3 C 14.89 g/m*3 29.3 C 0 km/h
1095 28-08-2019 19:10:00 28.9 C 14.85 g/m*3 28.9 C 0 km/h
1096 28-08-2019 19:15:00 28.6 C 14.33 g/m*3 28.6 C 0 km/h
1097 28-08-2019 19:20:00 28.2 C 14.3 g/m*3 28.2 C 0 km/h
1098 28-08-2019 19:25:00 27.8 C 13.99 g/m*3 27.8 C 0 km/h
1099 28-08-2019 19:30:00 27.6 C 13.57 g/m*3 27.6 C 0 km/h
1100 28-08-2019 19:35:00 27.3 C 14.39 g/m*3 27.3 C 0 km/h
Sensor: Nr:Datum:Temp:Abs-Feuchte:Windchill:Wind:
Aussen-T/F 1101 28-08-2019 19:40:00 27.1 C 13.46 g/m*3 27.1 C 0 km/h
1102 28-08-2019 19:45:00 26.9 C 13.82 g/m*3 26.9 C 1.6 km/h
1103 28-08-2019 19:50:00 26.7 C 13.67 g/m*3 26.7 C 1.6 km/h
1104 28-08-2019 19:55:00 26.4 C 13.44 g/m*3 26.4 C 1.6 km/h
1105 28-08-2019 20:00:00 26.3 C 13.62 g/m*3 26.3 C 1.6 km/h
1106 28-08-2019 20:05:00 26.2 C 13.54 g/m*3 26.2 C 1.6 km/h
1107 28-08-2019 20:10:00 26 C 13.63 g/m*3 26 C 1.6 km/h
1108 28-08-2019 20:15:00 25.9 C 13.32 g/m*3 25.9 C 0 km/h
1109 28-08-2019 20:20:00 25.8 C 13.24 g/m*3 25.8 C 0 km/h
1110 28-08-2019 20:25:00 25.7 C 13.41 g/m*3 25.7 C 0 km/h
1111 28-08-2019 20:30:00 25.5 C 13.49 g/m*3 25.5 C 0 km/h
1112 28-08-2019 20:35:00 25.4 C 13.18 g/m*3 25.4 C 0 km/h
1113 28-08-2019 20:40:00 25.3 C 13.58 g/m*3 25.3 C 0 km/h
1114 28-08-2019 20:45:00 25.1 C 13.43 g/m*3 25.1 C 0 km/h
1115 28-08-2019 20:50:00 25 C 13.58 g/m*3 25 C 0 km/h
1116 28-08-2019 20:55:00 24.9 C 13.51 g/m*3 24.9 C 0 km/h
1117 28-08-2019 21:00:00 24.8 C 13.2 g/m*3 24.8 C 0 km/h
1118 28-08-2019 21:05:00 24.7 C 13.58 g/m*3 24.7 C 0 km/h
1119 28-08-2019 21:10:00 24.6 C 13.73 g/m*3 24.6 C 0 km/h
1120 28-08-2019 21:15:00 24.5 C 13.88 g/m*3 24.5 C 0 km/h
1121 28-08-2019 21:20:00 24.3 C 13.5 g/m*3 24.3 C 3.2 km/h
1122 28-08-2019 21:25:00 24.3 C 13.72 g/m*3 24.3 C 1.6 km/h
1123 28-08-2019 21:30:00 24.2 C 13.42 g/m*3 24.2 C 1.6 km/h
1124 28-08-2019 21:35:00 24.1 C 13.78 g/m*3 24.1 C 0 km/h
1125 28-08-2019 21:40:00 24 C 14.14 g/m*3 24 C 0 km/h
Sensor: Nr:Datum:Temp:Abs-Feuchte:Windchill:Wind:
Aussen-T/F 1126 28-08-2019 21:45:00 23.8 C 13.98 g/m*3 23.8 C 0 km/h
1127 28-08-2019 21:50:00 23.7 C 13.9 g/m*3 23.7 C 0 km/h
1128 28-08-2019 21:55:00 23.4 C 14.09 g/m*3 23.4 C 0 km/h
1129 28-08-2019 22:00:00 23.2 C 13.72 g/m*3 23.2 C 0 km/h
1130 28-08-2019 22:05:00 22.9 C 13.69 g/m*3 22.9 C 0 km/h
1131 28-08-2019 22:10:00 22.7 C 13.33 g/m*3 22.7 C 0 km/h
1132 28-08-2019 22:15:00 22.6 C 13.66 g/m*3 22.6 C 0 km/h
1133 28-08-2019 22:20:00 22.6 C 14.06 g/m*3 22.6 C 0 km/h
1134 28-08-2019 22:25:00 22.4 C 14.1 g/m*3 22.4 C 0 km/h
1135 28-08-2019 22:30:00 22.3 C 14.02 g/m*3 22.3 C 0 km/h
1136 28-08-2019 22:35:00 22.3 C 14.02 g/m*3 22.3 C 0 km/h
1137 28-08-2019 22:40:00 22.2 C 14.14 g/m*3 22.2 C 0 km/h
1138 28-08-2019 22:45:00 22.1 C 14.25 g/m*3 22.1 C 0 km/h
1139 28-08-2019 22:50:00 22 C 14.17 g/m*3 22 C 0 km/h
1140 28-08-2019 22:55:00 21.9 C 14.09 g/m*3 21.9 C 0 km/h
1141 28-08-2019 23:00:00 21.8 C 13.81 g/m*3 21.8 C 0 km/h
1142 28-08-2019 23:05:00 21.7 C 13.93 g/m*3 21.7 C 0 km/h
1143 28-08-2019 23:10:00 21.6 C 13.85 g/m*3 21.6 C 0 km/h
1144 28-08-2019 23:15:00 21.6 C 14.03 g/m*3 21.6 C 0 km/h
1145 28-08-2019 23:20:00 21.4 C 13.87 g/m*3 21.4 C 0 km/h
1146 28-08-2019 23:25:00 21.3 C 13.79 g/m*3 21.3 C 0 km/h
1147 28-08-2019 23:30:00 21.3 C 13.98 g/m*3 21.3 C 0 km/h
1148 28-08-2019 23:35:00 21.2 C 13.9 g/m*3 21.2 C 0 km/h
1149 28-08-2019 23:40:00 21.2 C 13.9 g/m*3 21.2 C 0 km/h
1150 28-08-2019 23:45:00 21.2 C 14.08 g/m*3 21.2 C 0 km/h
Sensor: Nr:Datum:Temp:Abs-Feuchte:Windchill:Wind:
Aussen-T/F 1151 28-08-2019 23:50:00 21.2 C 14.08 g/m*3 21.2 C 0 km/h
1152 28-08-2019 23:55:00 21.1 C 13.82 g/m*3 21.1 C 0 km/h
1153 29-08-2019 00:00:00 21 C 13.92 g/m*3 21 C 0 km/h
1154 29-08-2019 00:05:00 20.9 C 13.84 g/m*3 20.9 C 0 km/h
1155 29-08-2019 00:10:00 20.9 C 13.84 g/m*3 20.9 C 0 km/h
1156 29-08-2019 00:15:00 20.9 C 14.02 g/m*3 20.9 C 0 km/h
1157 29-08-2019 00:20:00 20.8 C 13.94 g/m*3 20.8 C 0 km/h
1158 29-08-2019 00:25:00 20.8 C 13.94 g/m*3 20.8 C 0 km/h
1159 29-08-2019 00:30:00 20.7 C 13.68 g/m*3 20.7 C 0 km/h
1160 29-08-2019 00:35:00 20.7 C 13.86 g/m*3 20.7 C 0 km/h
1161 29-08-2019 00:40:00 20.7 C 13.86 g/m*3 20.7 C 0 km/h
1162 29-08-2019 00:45:00 20.7 C 13.86 g/m*3 20.7 C 0 km/h
1163 29-08-2019 00:50:00 20.6 C 13.96 g/m*3 20.6 C 0 km/h
1164 29-08-2019 00:55:00 20.6 C 13.96 g/m*3 20.6 C 0 km/h
1165 29-08-2019 01:00:00 20.5 C 13.88 g/m*3 20.5 C 0 km/h
1166 29-08-2019 01:05:00 20.5 C 13.88 g/m*3 20.5 C 0 km/h
1167 29-08-2019 01:10:00 20.4 C 13.8 g/m*3 20.4 C 0 km/h
1168 29-08-2019 01:15:00 20.3 C 13.72 g/m*3 20.3 C 0 km/h
1169 29-08-2019 01:20:00 20.3 C 13.89 g/m*3 20.3 C 0 km/h
1170 29-08-2019 01:25:00 20.2 C 13.81 g/m*3 20.2 C 0 km/h
1171 29-08-2019 01:30:00 20.1 C 13.73 g/m*3 20.1 C 0 km/h
1172 29-08-2019 01:35:00 19.9 C 13.57 g/m*3 19.9 C 0 km/h
1173 29-08-2019 01:40:00 19.9 C 13.74 g/m*3 19.9 C 0 km/h
1174 29-08-2019 01:45:00 19.8 C 13.66 g/m*3 19.8 C 0 km/h
1175 29-08-2019 01:50:00 19.7 C 13.58 g/m*3 19.7 C 0 km/h
Sensor: Nr:Datum:Temp:Abs-Feuchte:Windchill:Wind:
Aussen-T/F 1176 29-08-2019 01:55:00 19.7 C 13.75 g/m*3 19.7 C 0 km/h
1177 29-08-2019 02:00:00 19.6 C 13.67 g/m*3 19.6 C 0 km/h
1178 29-08-2019 02:05:00 19.6 C 13.67 g/m*3 19.6 C 0 km/h
1179 29-08-2019 02:10:00 19.4 C 13.51 g/m*3 19.4 C 0 km/h
1180 29-08-2019 02:15:00 19.3 C 13.44 g/m*3 19.3 C 0 km/h
1181 29-08-2019 02:20:00 19.2 C 13.52 g/m*3 19.2 C 0 km/h
1182 29-08-2019 02:25:00 19.2 C 13.52 g/m*3 19.2 C 0 km/h
1183 29-08-2019 02:30:00 19.1 C 13.61 g/m*3 19.1 C 0 km/h
1184 29-08-2019 02:35:00 19.1 C 13.61 g/m*3 19.1 C 0 km/h
1185 29-08-2019 02:40:00 19.1 C 13.61 g/m*3 19.1 C 0 km/h
1186 29-08-2019 02:45:00 19.1 C 13.61 g/m*3 19.1 C 0 km/h
1187 29-08-2019 02:50:00 18.9 C 13.45 g/m*3 18.9 C 0 km/h
1188 29-08-2019 02:55:00 18.8 C 13.37 g/m*3 18.8 C 0 km/h
1189 29-08-2019 03:00:00 18.7 C 13.29 g/m*3 18.7 C 0 km/h
1190 29-08-2019 03:05:00 18.6 C 13.37 g/m*3 18.6 C 0 km/h
1191 29-08-2019 03:10:00 18.5 C 13.29 g/m*3 18.5 C 0 km/h
1192 29-08-2019 03:15:00 18.4 C 13.21 g/m*3 18.4 C 0 km/h
1193 29-08-2019 03:20:00 18.3 C 13.13 g/m*3 18.3 C 0 km/h
1194 29-08-2019 03:25:00 18.2 C 13.21 g/m*3 18.2 C 0 km/h
1195 29-08-2019 03:30:00 18.2 C 13.21 g/m*3 18.2 C 0 km/h
1196 29-08-2019 03:35:00 18.1 C 13.13 g/m*3 18.1 C 0 km/h
1197 29-08-2019 03:40:00 18.1 C 13.13 g/m*3 18.1 C 0 km/h
1198 29-08-2019 03:45:00 17.9 C 13.13 g/m*3 17.9 C 0 km/h
1199 29-08-2019 03:50:00 17.9 C 13.13 g/m*3 17.9 C 0 km/h
1200 29-08-2019 03:55:00 17.8 C 13.2 g/m*3 17.8 C 0 km/h
Sensor: Nr:Datum:Temp:Abs-Feuchte:Windchill:Wind:
Aussen-T/F 1201 29-08-2019 04:00:00 17.8 C 13.2 g/m*3 17.8 C 0 km/h
1202 29-08-2019 04:05:00 17.7 C 13.13 g/m*3 17.7 C 0 km/h
1203 29-08-2019 04:10:00 17.7 C 13.13 g/m*3 17.7 C 0 km/h
1204 29-08-2019 04:15:00 17.7 C 13.13 g/m*3 17.7 C 0 km/h
1205 29-08-2019 04:20:00 17.6 C 13.2 g/m*3 17.6 C 0 km/h
1206 29-08-2019 04:25:00 17.5 C 13.12 g/m*3 17.5 C 0 km/h
1207 29-08-2019 04:30:00 17.4 C 13.04 g/m*3 17.4 C 0 km/h
1208 29-08-2019 04:35:00 17.4 C 13.04 g/m*3 17.4 C 0 km/h
1209 29-08-2019 04:40:00 17.4 C 13.19 g/m*3 17.4 C 0 km/h
1210 29-08-2019 04:45:00 17.4 C 13.19 g/m*3 17.4 C 0 km/h
1211 29-08-2019 04:50:00 17.4 C 13.19 g/m*3 17.4 C 0 km/h
1212 29-08-2019 04:55:00 17.4 C 13.19 g/m*3 17.4 C 0 km/h
1213 29-08-2019 05:00:00 17.4 C 13.19 g/m*3 17.4 C 0 km/h
1214 29-08-2019 05:05:00 17.5 C 13.42 g/m*3 17.5 C 0 km/h
1215 29-08-2019 05:10:00 17.6 C 13.5 g/m*3 17.6 C 0 km/h
1216 29-08-2019 05:15:00 17.7 C 13.58 g/m*3 17.7 C 0 km/h
1217 29-08-2019 05:20:00 17.7 C 13.58 g/m*3 17.7 C 0 km/h
1218 29-08-2019 05:25:00 17.8 C 13.66 g/m*3 17.8 C 0 km/h
1219 29-08-2019 05:30:00 17.8 C 13.66 g/m*3 17.8 C 0 km/h
1220 29-08-2019 05:35:00 17.8 C 13.66 g/m*3 17.8 C 0 km/h
1221 29-08-2019 05:40:00 17.9 C 13.74 g/m*3 17.9 C 0 km/h
1222 29-08-2019 05:45:00 18 C 13.82 g/m*3 18 C 0 km/h
1223 29-08-2019 05:50:00 18.1 C 13.91 g/m*3 18.1 C 0 km/h
1224 29-08-2019 05:55:00 18.1 C 13.91 g/m*3 18.1 C 0 km/h
1225 29-08-2019 06:00:00 18.2 C 13.99 g/m*3 18.2 C 1.6 km/h
Sensor: Nr:Datum:Temp:Abs-Feuchte:Windchill:Wind:
Aussen-T/F 1226 29-08-2019 06:05:00 18.3 C 14.07 g/m*3 18.3 C 1.6 km/h
1227 29-08-2019 06:10:00 18.3 C 14.07 g/m*3 18.3 C 0 km/h
1228 29-08-2019 06:15:00 18.3 C 14.07 g/m*3 18.3 C 0 km/h
1229 29-08-2019 06:20:00 18.3 C 14.07 g/m*3 18.3 C 0 km/h
1230 29-08-2019 06:25:00 18.3 C 14.07 g/m*3 18.3 C 0 km/h
1231 29-08-2019 06:30:00 18.3 C 13.92 g/m*3 18.3 C 0 km/h
1232 29-08-2019 06:35:00 18.3 C 13.92 g/m*3 18.3 C 0 km/h
1233 29-08-2019 06:40:00 18.3 C 14.07 g/m*3 18.3 C 0 km/h
1234 29-08-2019 06:45:00 18.4 C 14.16 g/m*3 18.4 C 0 km/h
1235 29-08-2019 06:50:00 18.5 C 14.24 g/m*3 18.5 C 0 km/h
1236 29-08-2019 06:55:00 18.6 C 14.32 g/m*3 18.6 C 3.2 km/h
1237 29-08-2019 07:00:00 18.6 C 14.32 g/m*3 18.6 C 1.6 km/h
1238 29-08-2019 07:05:00 18.8 C 14.49 g/m*3 18.8 C 6.4 km/h
1239 29-08-2019 07:10:00 18.9 C 14.58 g/m*3 18.9 C 6.4 km/h
1240 29-08-2019 07:15:00 19 C 14.5 g/m*3 19 C 1.6 km/h
1241 29-08-2019 07:20:00 19.1 C 14.59 g/m*3 19.1 C 0 km/h
1242 29-08-2019 07:25:00 19.1 C 14.59 g/m*3 19.1 C 1.6 km/h
1243 29-08-2019 07:30:00 19.1 C 14.59 g/m*3 19.1 C 0 km/h
1244 29-08-2019 07:35:00 19.1 C 14.59 g/m*3 19.1 C 0 km/h
1245 29-08-2019 07:40:00 19.1 C 14.59 g/m*3 19.1 C 1.6 km/h
1246 29-08-2019 07:45:00 19.2 C 14.68 g/m*3 19.2 C 4.8 km/h
1247 29-08-2019 07:50:00 19.2 C 14.68 g/m*3 19.2 C 1.6 km/h
1248 29-08-2019 07:55:00 19.3 C 14.76 g/m*3 19.3 C 3.2 km/h
1249 29-08-2019 08:00:00 19.4 C 14.68 g/m*3 19.4 C 3.2 km/h
1250 29-08-2019 08:05:00 19.6 C 14.86 g/m*3 19.6 C 4.8 km/h
Sensor: Nr:Datum:Temp:Abs-Feuchte:Windchill:Wind:
Aussen-T/F 1251 29-08-2019 08:10:00 19.6 C 14.86 g/m*3 19.6 C 0 km/h
1252 29-08-2019 08:15:00 19.7 C 14.94 g/m*3 19.7 C 0 km/h
1253 29-08-2019 08:20:00 19.8 C 15.03 g/m*3 19.8 C 1.6 km/h
1254 29-08-2019 08:25:00 19.8 C 14.86 g/m*3 19.8 C 4.8 km/h
1255 29-08-2019 08:30:00 19.9 C 14.95 g/m*3 19.9 C 6.4 km/h
1256 29-08-2019 08:35:00 20.1 C 15.12 g/m*3 20.1 C 4.8 km/h
1257 29-08-2019 08:40:00 20.1 C 14.95 g/m*3 20.1 C 3.2 km/h
1258 29-08-2019 08:45:00 20.2 C 15.04 g/m*3 20.2 C 3.2 km/h
1259 29-08-2019 08:50:00 20.2 C 15.04 g/m*3 20.2 C 1.6 km/h
1260 29-08-2019 08:55:00 20.3 C 15.13 g/m*3 20.3 C 3.2 km/h
1261 29-08-2019 09:00:00 20.3 C 15.13 g/m*3 20.3 C 1.6 km/h
1262 29-08-2019 09:05:00 20.4 C 15.21 g/m*3 20.4 C 4.8 km/h
1263 29-08-2019 09:10:00 20.4 C 15.04 g/m*3 20.4 C 3.2 km/h
1264 29-08-2019 09:15:00 20.5 C 15.12 g/m*3 20.5 C 6.4 km/h
1265 29-08-2019 09:20:00 20.6 C 15.21 g/m*3 20.6 C 1.6 km/h
1266 29-08-2019 09:25:00 20.6 C 15.21 g/m*3 20.6 C 0 km/h
1267 29-08-2019 09:30:00 20.7 C 15.3 g/m*3 20.7 C 1.6 km/h
1268 29-08-2019 09:35:00 20.8 C 15.21 g/m*3 20.8 C 1.6 km/h
1269 29-08-2019 09:40:00 20.8 C 15.39 g/m*3 20.8 C 3.2 km/h
1270 29-08-2019 09:45:00 21 C 15.39 g/m*3 21 C 1.6 km/h
1271 29-08-2019 09:50:00 21.1 C 15.48 g/m*3 21.1 C 0 km/h
1272 29-08-2019 09:55:00 21.2 C 15.57 g/m*3 21.2 C 3.2 km/h
1273 29-08-2019 10:00:00 21.2 C 15.57 g/m*3 21.2 C 3.2 km/h
1274 29-08-2019 10:05:00 21.2 C 15.57 g/m*3 21.2 C 0 km/h
1275 29-08-2019 10:10:00 21.3 C 16.03 g/m*3 21.3 C 0 km/h
Sensor: Nr:Datum:Temp:Abs-Feuchte:Windchill:Wind:
Aussen-T/F 1276 29-08-2019 10:15:00 21.2 C 16.12 g/m*3 21.2 C 0 km/h
1277 29-08-2019 10:20:00 21.2 C 16.31 g/m*3 21.2 C 0 km/h
1278 29-08-2019 10:25:00 21.2 C 16.31 g/m*3 21.2 C 0 km/h
1279 29-08-2019 10:30:00 21.1 C 15.85 g/m*3 21.1 C 0 km/h
1280 29-08-2019 10:35:00 21 C 15.75 g/m*3 21 C 0 km/h
1281 29-08-2019 10:40:00 21 C 15.94 g/m*3 21 C 0 km/h
1282 29-08-2019 10:45:00 21.1 C 16.21 g/m*3 21.1 C 0 km/h
1283 29-08-2019 10:50:00 21.3 C 16.4 g/m*3 21.3 C 0 km/h
1284 29-08-2019 10:55:00 21.3 C 16.03 g/m*3 21.3 C 1.6 km/h
1285 29-08-2019 11:00:00 21.4 C 15.94 g/m*3 21.4 C 0 km/h
1286 29-08-2019 11:05:00 21.6 C 15.93 g/m*3 21.6 C 3.2 km/h
1287 29-08-2019 11:10:00 21.7 C 16.02 g/m*3 21.7 C 1.6 km/h
1288 29-08-2019 11:15:00 21.8 C 16.12 g/m*3 21.8 C 1.6 km/h
1289 29-08-2019 11:20:00 21.9 C 16.21 g/m*3 21.9 C 1.6 km/h
1290 29-08-2019 11:25:00 22.1 C 16.2 g/m*3 22.1 C 0 km/h
1291 29-08-2019 11:30:00 22.2 C 16.3 g/m*3 22.2 C 1.6 km/h
1292 29-08-2019 11:35:00 22.4 C 16.28 g/m*3 22.4 C 1.6 km/h
1293 29-08-2019 11:40:00 22.5 C 16.18 g/m*3 22.5 C 4.8 km/h
1294 29-08-2019 11:45:00 22.7 C 16.16 g/m*3 22.7 C 6.4 km/h
1295 29-08-2019 11:50:00 22.6 C 16.07 g/m*3 22.6 C 8.1 km/h
1296 29-08-2019 11:55:00 22.7 C 16.16 g/m*3 22.7 C 4.8 km/h
1297 29-08-2019 12:00:00 22.7 C 16.16 g/m*3 22.7 C 6.4 km/h
1298 29-08-2019 12:05:00 22.7 C 16.16 g/m*3 22.7 C 4.8 km/h
1299 29-08-2019 12:10:00 22.8 C 16.26 g/m*3 22.8 C 3.2 km/h
1300 29-08-2019 12:15:00 22.9 C 16.14 g/m*3 22.9 C 3.2 km/h
Sensor: Nr:Datum:Temp:Abs-Feuchte:Windchill:Wind:
Aussen-T/F 1301 29-08-2019 12:20:00 23 C 16.03 g/m*3 23 C 3.2 km/h
1302 29-08-2019 12:25:00 23.1 C 16.12 g/m*3 23.1 C 3.2 km/h
1303 29-08-2019 12:30:00 23.2 C 16.22 g/m*3 23.2 C 3.2 km/h
1304 29-08-2019 12:35:00 23.3 C 15.89 g/m*3 23.3 C 4.8 km/h
1305 29-08-2019 12:40:00 23.6 C 16.38 g/m*3 23.6 C 6.4 km/h
1306 29-08-2019 12:45:00 23.8 C 16.35 g/m*3 23.8 C 9.7 km/h
1307 29-08-2019 12:50:00 24.1 C 16.41 g/m*3 24.1 C 6.4 km/h
1308 29-08-2019 12:55:00 24.3 C 16.6 g/m*3 24.3 C 6.4 km/h
1309 29-08-2019 13:00:00 24.4 C 16.02 g/m*3 24.4 C 9.7 km/h
1310 29-08-2019 13:05:00 24.7 C 16.3 g/m*3 24.7 C 8.1 km/h
1311 29-08-2019 13:10:00 24.9 C 16.02 g/m*3 24.9 C 8.1 km/h
1312 29-08-2019 13:15:00 25.1 C 16.2 g/m*3 25.1 C 6.4 km/h
1313 29-08-2019 13:20:00 25.2 C 16.06 g/m*3 25.2 C 8.1 km/h
1314 29-08-2019 13:25:00 25.3 C 16.15 g/m*3 25.3 C 4.8 km/h
1315 29-08-2019 13:30:00 25.5 C 16.34 g/m*3 25.5 C 11.3 km/h
1316 29-08-2019 13:35:00 25.7 C 16.28 g/m*3 25.7 C 11.3 km/h
1317 29-08-2019 13:40:00 25.8 C 16.37 g/m*3 25.8 C 4.8 km/h
1318 29-08-2019 13:45:00 26.1 C 16.4 g/m*3 26.1 C 11.3 km/h
1319 29-08-2019 13:50:00 26.3 C 16.34 g/m*3 26.3 C 8.1 km/h
1320 29-08-2019 13:55:00 26.4 C 16.18 g/m*3 26.4 C 9.7 km/h
1321 29-08-2019 14:00:00 26.5 C 16.27 g/m*3 26.5 C 8.1 km/h
1322 29-08-2019 14:05:00 26.7 C 16.2 g/m*3 26.7 C 6.4 km/h
1323 29-08-2019 14:10:00 26.7 C 16.71 g/m*3 26.7 C 9.7 km/h
1324 29-08-2019 14:15:00 26.8 C 16.54 g/m*3 26.8 C 9.7 km/h
1325 29-08-2019 14:20:00 26.7 C 16.45 g/m*3 26.7 C 9.7 km/h
Sensor: Nr:Datum:Temp:Abs-Feuchte:Windchill:Wind:
Aussen-T/F 1326 29-08-2019 14:25:00 26.6 C 16.61 g/m*3 26.6 C 6.4 km/h
1327 29-08-2019 14:30:00 26.6 C 16.36 g/m*3 26.6 C 8.1 km/h
1328 29-08-2019 14:35:00 26.7 C 16.71 g/m*3 26.7 C 6.4 km/h
1329 29-08-2019 14:40:00 26.8 C 16.54 g/m*3 26.8 C 11.3 km/h
1330 29-08-2019 14:45:00 27 C 16.47 g/m*3 27 C 6.4 km/h
1331 29-08-2019 14:50:00 27.1 C 16.56 g/m*3 27.1 C 3.2 km/h
1332 29-08-2019 14:55:00 27.2 C 16.39 g/m*3 27.2 C 9.7 km/h
1333 29-08-2019 15:00:00 27.2 C 16.39 g/m*3 27.2 C 9.7 km/h
1334 29-08-2019 15:05:00 27.2 C 16.91 g/m*3 27.2 C 4.8 km/h
1335 29-08-2019 15:10:00 27.3 C 16.48 g/m*3 27.3 C 8.1 km/h
1336 29-08-2019 15:15:00 27.5 C 16.67 g/m*3 27.5 C 8.1 km/h
1337 29-08-2019 15:20:00 27.7 C 16.85 g/m*3 27.7 C 8.1 km/h
1338 29-08-2019 15:25:00 27.8 C 16.68 g/m*3 27.8 C 9.7 km/h
1339 29-08-2019 15:30:00 27.7 C 16.58 g/m*3 27.7 C 14.5 km/h
1340 29-08-2019 15:35:00 27.4 C 16.31 g/m*3 27.4 C 14.5 km/h
1341 29-08-2019 15:40:00 27.4 C 16.31 g/m*3 27.4 C 8.1 km/h
1342 29-08-2019 15:45:00 27.6 C 16.76 g/m*3 27.6 C 6.4 km/h
1343 29-08-2019 15:50:00 27.7 C 16.58 g/m*3 27.7 C 9.7 km/h
1344 29-08-2019 15:55:00 27.9 C 16.5 g/m*3 27.9 C 11.3 km/h
1345 29-08-2019 16:00:00 28 C 16.59 g/m*3 28 C 11.3 km/h
1346 29-08-2019 16:05:00 27.8 C 16.41 g/m*3 27.8 C 11.3 km/h
1347 29-08-2019 16:10:00 27.8 C 16.41 g/m*3 27.8 C 6.4 km/h
1348 29-08-2019 16:15:00 28.1 C 16.41 g/m*3 28.1 C 14.5 km/h
1349 29-08-2019 16:20:00 28.1 C 16.13 g/m*3 28.1 C 9.7 km/h
1350 29-08-2019 16:25:00 27.9 C 16.23 g/m*3 27.9 C 9.7 km/h
Sensor: Nr:Datum:Temp:Abs-Feuchte:Windchill:Wind:
Aussen-T/F 1351 29-08-2019 16:30:00 27.9 C 15.96 g/m*3 27.9 C 9.7 km/h
1352 29-08-2019 16:35:00 28.1 C 16.41 g/m*3 28.1 C 8.1 km/h
1353 29-08-2019 16:40:00 28 C 16.04 g/m*3 28 C 6.4 km/h
1354 29-08-2019 16:45:00 27.8 C 15.6 g/m*3 27.8 C 6.4 km/h
1355 29-08-2019 16:50:00 27.5 C 15.87 g/m*3 27.5 C 9.7 km/h
1356 29-08-2019 16:55:00 27.5 C 16.14 g/m*3 27.5 C 9.7 km/h
1357 29-08-2019 17:00:00 27.8 C 16.14 g/m*3 27.8 C 11.3 km/h
1358 29-08-2019 17:05:00 27.9 C 15.96 g/m*3 27.9 C 8.1 km/h
1359 29-08-2019 17:10:00 27.6 C 15.7 g/m*3 27.6 C 8.1 km/h
1360 29-08-2019 17:15:00 27.2 C 15.61 g/m*3 27.2 C 9.7 km/h
1361 29-08-2019 17:20:00 27 C 15.7 g/m*3 27 C 6.4 km/h
1362 29-08-2019 17:25:00 26.9 C 15.61 g/m*3 26.9 C 9.7 km/h
1363 29-08-2019 17:30:00 26.8 C 15.53 g/m*3 26.8 C 9.7 km/h
1364 29-08-2019 17:35:00 26.9 C 15.61 g/m*3 26.9 C 6.4 km/h
1365 29-08-2019 17:40:00 27 C 15.7 g/m*3 27 C 8.1 km/h
1366 29-08-2019 17:45:00 27.3 C 15.96 g/m*3 27.3 C 6.4 km/h
1367 29-08-2019 17:50:00 27.5 C 15.87 g/m*3 27.5 C 11.3 km/h
1368 29-08-2019 17:55:00 27.5 C 15.61 g/m*3 27.5 C 9.7 km/h
1369 29-08-2019 18:00:00 27.1 C 15.53 g/m*3 27.1 C 11.3 km/h
1370 29-08-2019 18:05:00 26.8 C 15.27 g/m*3 26.8 C 6.4 km/h
1371 29-08-2019 18:10:00 26.8 C 15.27 g/m*3 26.8 C 11.3 km/h
1372 29-08-2019 18:15:00 26.9 C 15.36 g/m*3 26.9 C 8.1 km/h
1373 29-08-2019 18:20:00 26.9 C 15.36 g/m*3 26.9 C 9.7 km/h
1374 29-08-2019 18:25:00 26.7 C 15.44 g/m*3 26.7 C 9.7 km/h
1375 29-08-2019 18:30:00 26.3 C 15.1 g/m*3 26.3 C 8.1 km/h
Sensor: Nr:Datum:Temp:Abs-Feuchte:Windchill:Wind:
Aussen-T/F 1376 29-08-2019 18:35:00 26.1 C 15.18 g/m*3 26.1 C 6.4 km/h
1377 29-08-2019 18:40:00 26.1 C 14.93 g/m*3 26.1 C 11.3 km/h
1378 29-08-2019 18:45:00 26 C 14.85 g/m*3 26 C 6.4 km/h
1379 29-08-2019 18:50:00 25.9 C 14.77 g/m*3 25.9 C 6.4 km/h
1380 29-08-2019 18:55:00 25.7 C 15.08 g/m*3 25.7 C 4.8 km/h
1381 29-08-2019 19:00:00 25.5 C 14.68 g/m*3 25.5 C 6.4 km/h
1382 29-08-2019 19:05:00 25.4 C 14.83 g/m*3 25.4 C 6.4 km/h
1383 29-08-2019 19:10:00 25.2 C 14.67 g/m*3 25.2 C 6.4 km/h
1384 29-08-2019 19:15:00 25.1 C 14.58 g/m*3 25.1 C 6.4 km/h
1385 29-08-2019 19:20:00 25 C 14.96 g/m*3 25 C 1.6 km/h
1386 29-08-2019 19:25:00 24.8 C 14.8 g/m*3 24.8 C 3.2 km/h
1387 29-08-2019 19:30:00 24.7 C 14.49 g/m*3 24.7 C 0 km/h
1388 29-08-2019 19:35:00 24.4 C 14.47 g/m*3 24.4 C 9.7 km/h
1389 29-08-2019 19:40:00 24.4 C 14.69 g/m*3 24.4 C 4.8 km/h
1390 29-08-2019 19:45:00 24.3 C 14.61 g/m*3 24.3 C 6.4 km/h
1391 29-08-2019 19:50:00 24.1 C 14.66 g/m*3 24.1 C 1.6 km/h
1392 29-08-2019 19:55:00 23.9 C 14.49 g/m*3 23.9 C 3.2 km/h
1393 29-08-2019 20:00:00 23.9 C 14.71 g/m*3 23.9 C 3.2 km/h
1394 29-08-2019 20:05:00 23.8 C 14.41 g/m*3 23.8 C 3.2 km/h
1395 29-08-2019 20:10:00 23.7 C 14.54 g/m*3 23.7 C 4.8 km/h
1396 29-08-2019 20:15:00 23.6 C 14.46 g/m*3 23.6 C 3.2 km/h
1397 29-08-2019 20:20:00 23.4 C 14.51 g/m*3 23.4 C 0 km/h
1398 29-08-2019 20:25:00 23.2 C 14.34 g/m*3 23.2 C 0 km/h
1399 29-08-2019 20:30:00 22.8 C 14.22 g/m*3 22.8 C 0 km/h
1400 29-08-2019 20:35:00 22.4 C 14.3 g/m*3 22.4 C 0 km/h
Sensor: Nr:Datum:Temp:Abs-Feuchte:Windchill:Wind:
Aussen-T/F 1401 29-08-2019 20:40:00 22.1 C 14.25 g/m*3 22.1 C 0 km/h
1402 29-08-2019 20:45:00 21.8 C 14.2 g/m*3 21.8 C 0 km/h
1403 29-08-2019 20:50:00 21.6 C 14.22 g/m*3 21.6 C 0 km/h
1404 29-08-2019 20:55:00 21.4 C 14.06 g/m*3 21.4 C 0 km/h
1405 29-08-2019 21:00:00 21.3 C 13.98 g/m*3 21.3 C 0 km/h
1406 29-08-2019 21:05:00 21.2 C 14.08 g/m*3 21.2 C 0 km/h
1407 29-08-2019 21:10:00 21.1 C 14 g/m*3 21.1 C 0 km/h
1408 29-08-2019 21:15:00 21.1 C 14 g/m*3 21.1 C 0 km/h
1409 29-08-2019 21:20:00 21 C 13.92 g/m*3 21 C 0 km/h
1410 29-08-2019 21:25:00 20.9 C 13.84 g/m*3 20.9 C 0 km/h
1411 29-08-2019 21:30:00 20.8 C 13.94 g/m*3 20.8 C 0 km/h
1412 29-08-2019 21:35:00 20.7 C 14.04 g/m*3 20.7 C 1.6 km/h
1413 29-08-2019 21:40:00 20.7 C 14.04 g/m*3 20.7 C 1.6 km/h
1414 29-08-2019 21:45:00 20.6 C 13.78 g/m*3 20.6 C 1.6 km/h
1415 29-08-2019 21:50:00 20.7 C 14.04 g/m*3 20.7 C 0 km/h
1416 29-08-2019 21:55:00 20.6 C 13.96 g/m*3 20.6 C 0 km/h
1417 29-08-2019 22:00:00 20.6 C 13.96 g/m*3 20.6 C 0 km/h
1418 29-08-2019 22:05:00 20.6 C 14.14 g/m*3 20.6 C 0 km/h
1419 29-08-2019 22:10:00 20.6 C 14.14 g/m*3 20.6 C 0 km/h
1420 29-08-2019 22:15:00 20.6 C 14.14 g/m*3 20.6 C 0 km/h
1421 29-08-2019 22:20:00 20.6 C 14.14 g/m*3 20.6 C 0 km/h
1422 29-08-2019 22:25:00 20.6 C 14.14 g/m*3 20.6 C 0 km/h
1423 29-08-2019 22:30:00 20.6 C 14.14 g/m*3 20.6 C 0 km/h
1424 29-08-2019 22:35:00 20.4 C 13.8 g/m*3 20.4 C 0 km/h
1425 29-08-2019 22:40:00 20.4 C 13.98 g/m*3 20.4 C 0 km/h
Sensor: Nr:Datum:Temp:Abs-Feuchte:Windchill:Wind:
Aussen-T/F 1426 29-08-2019 22:45:00 20.4 C 13.98 g/m*3 20.4 C 0 km/h
1427 29-08-2019 22:50:00 20.4 C 13.98 g/m*3 20.4 C 1.6 km/h
1428 29-08-2019 22:55:00 20.5 C 14.06 g/m*3 20.5 C 0 km/h
1429 29-08-2019 23:00:00 20.6 C 14.14 g/m*3 20.6 C 0 km/h
1430 29-08-2019 23:05:00 20.6 C 14.14 g/m*3 20.6 C 0 km/h
1431 29-08-2019 23:10:00 20.6 C 14.14 g/m*3 20.6 C 0 km/h
1432 29-08-2019 23:15:00 20.6 C 14.32 g/m*3 20.6 C 0 km/h
1433 29-08-2019 23:20:00 20.6 C 14.32 g/m*3 20.6 C 0 km/h
1434 29-08-2019 23:25:00 20.6 C 14.14 g/m*3 20.6 C 0 km/h
1435 29-08-2019 23:30:00 20.5 C 14.23 g/m*3 20.5 C 0 km/h
1436 29-08-2019 23:35:00 20.4 C 14.15 g/m*3 20.4 C 0 km/h
1437 29-08-2019 23:40:00 20.4 C 14.15 g/m*3 20.4 C 0 km/h
1438 29-08-2019 23:45:00 20.3 C 14.07 g/m*3 20.3 C 0 km/h
1439 29-08-2019 23:50:00 20.3 C 13.89 g/m*3 20.3 C 1.6 km/h
1440 29-08-2019 23:55:00 20.3 C 14.07 g/m*3 20.3 C 1.6 km/h
1441 30-08-2019 00:00:00 20.3 C 13.89 g/m*3 20.3 C 1.6 km/h
1442 30-08-2019 00:05:00 20.4 C 13.98 g/m*3 20.4 C 3.2 km/h
1443 30-08-2019 00:10:00 20.4 C 13.98 g/m*3 20.4 C 0 km/h
1444 30-08-2019 00:15:00 20.4 C 13.98 g/m*3 20.4 C 6.4 km/h
1445 30-08-2019 00:20:00 20.4 C 13.98 g/m*3 20.4 C 6.4 km/h
1446 30-08-2019 00:25:00 20.4 C 13.8 g/m*3 20.4 C 6.4 km/h
1447 30-08-2019 00:30:00 20.4 C 13.8 g/m*3 20.4 C 0 km/h
1448 30-08-2019 00:35:00 20.4 C 13.98 g/m*3 20.4 C 0 km/h
1449 30-08-2019 00:40:00 20.3 C 13.89 g/m*3 20.3 C 3.2 km/h
1450 30-08-2019 00:45:00 20.2 C 13.81 g/m*3 20.2 C 0 km/h
Sensor: Nr:Datum:Temp:Abs-Feuchte:Windchill:Wind:
Aussen-T/F 1451 30-08-2019 00:50:00 20.1 C 13.91 g/m*3 20.1 C 0 km/h
1452 30-08-2019 00:55:00 20 C 13.83 g/m*3 20 C 1.6 km/h
1453 30-08-2019 01:00:00 19.9 C 13.74 g/m*3 19.9 C 0 km/h
1454 30-08-2019 01:05:00 19.8 C 13.84 g/m*3 19.8 C 0 km/h
1455 30-08-2019 01:10:00 19.6 C 13.67 g/m*3 19.6 C 0 km/h
1456 30-08-2019 01:15:00 19.4 C 13.68 g/m*3 19.4 C 0 km/h
1457 30-08-2019 01:20:00 19.3 C 13.77 g/m*3 19.3 C 0 km/h
1458 30-08-2019 01:25:00 19.2 C 13.69 g/m*3 19.2 C 0 km/h
1459 30-08-2019 01:30:00 19.1 C 13.61 g/m*3 19.1 C 0 km/h
1460 30-08-2019 01:35:00 18.9 C 13.61 g/m*3 18.9 C 0 km/h
1461 30-08-2019 01:40:00 18.8 C 13.53 g/m*3 18.8 C 0 km/h
1462 30-08-2019 01:45:00 18.8 C 13.53 g/m*3 18.8 C 0 km/h
1463 30-08-2019 01:50:00 18.7 C 13.61 g/m*3 18.7 C 0 km/h
1464 30-08-2019 01:55:00 18.7 C 13.61 g/m*3 18.7 C 0 km/h
1465 30-08-2019 02:00:00 18.6 C 13.53 g/m*3 18.6 C 0 km/h
1466 30-08-2019 02:05:00 18.4 C 13.37 g/m*3 18.4 C 0 km/h
1467 30-08-2019 02:10:00 18.4 C 13.37 g/m*3 18.4 C 0 km/h
1468 30-08-2019 02:15:00 18.3 C 13.45 g/m*3 18.3 C 0 km/h
1469 30-08-2019 02:20:00 18.3 C 13.45 g/m*3 18.3 C 0 km/h
1470 30-08-2019 02:25:00 18.2 C 13.37 g/m*3 18.2 C 0 km/h
1471 30-08-2019 02:30:00 18.2 C 13.37 g/m*3 18.2 C 0 km/h
1472 30-08-2019 02:35:00 18.1 C 13.29 g/m*3 18.1 C 0 km/h
1473 30-08-2019 02:40:00 18.1 C 13.44 g/m*3 18.1 C 0 km/h
1474 30-08-2019 02:45:00 18 C 13.36 g/m*3 18 C 0 km/h
1475 30-08-2019 02:50:00 17.9 C 13.28 g/m*3 17.9 C 0 km/h
Sensor: Nr:Datum:Temp:Abs-Feuchte:Windchill:Wind:
Aussen-T/F 1476 30-08-2019 02:55:00 17.9 C 13.28 g/m*3 17.9 C 0 km/h
1477 30-08-2019 03:00:00 17.8 C 13.2 g/m*3 17.8 C 0 km/h
1478 30-08-2019 03:05:00 17.7 C 13.28 g/m*3 17.7 C 0 km/h
1479 30-08-2019 03:10:00 17.7 C 13.28 g/m*3 17.7 C 0 km/h
1480 30-08-2019 03:15:00 17.6 C 13.2 g/m*3 17.6 C 0 km/h
1481 30-08-2019 03:20:00 17.6 C 13.2 g/m*3 17.6 C 0 km/h
1482 30-08-2019 03:25:00 17.5 C 13.12 g/m*3 17.5 C 0 km/h
1483 30-08-2019 03:30:00 17.4 C 13.19 g/m*3 17.4 C 0 km/h
1484 30-08-2019 03:35:00 17.4 C 13.19 g/m*3 17.4 C 0 km/h
1485 30-08-2019 03:40:00 17.3 C 13.11 g/m*3 17.3 C 0 km/h
1486 30-08-2019 03:45:00 17.3 C 13.11 g/m*3 17.3 C 0 km/h
1487 30-08-2019 03:50:00 17.3 C 13.11 g/m*3 17.3 C 0 km/h
1488 30-08-2019 03:55:00 17.2 C 13.03 g/m*3 17.2 C 0 km/h
1489 30-08-2019 04:00:00 17.2 C 13.03 g/m*3 17.2 C 0 km/h
1490 30-08-2019 04:05:00 17.1 C 12.96 g/m*3 17.1 C 0 km/h
1491 30-08-2019 04:10:00 17 C 13.02 g/m*3 17 C 0 km/h
1492 30-08-2019 04:15:00 16.9 C 12.8 g/m*3 16.9 C 0 km/h
1493 30-08-2019 04:20:00 16.8 C 12.87 g/m*3 16.8 C 0 km/h
1494 30-08-2019 04:25:00 16.7 C 12.79 g/m*3 16.7 C 0 km/h
1495 30-08-2019 04:30:00 16.6 C 12.71 g/m*3 16.6 C 0 km/h
1496 30-08-2019 04:35:00 16.5 C 12.64 g/m*3 16.5 C 0 km/h
1497 30-08-2019 04:40:00 16.4 C 12.7 g/m*3 16.4 C 0 km/h
1498 30-08-2019 04:45:00 16.3 C 12.62 g/m*3 16.3 C 0 km/h
1499 30-08-2019 04:50:00 16.2 C 12.55 g/m*3 16.2 C 0 km/h
1500 30-08-2019 04:55:00 16.2 C 12.55 g/m*3 16.2 C 0 km/h
Sensor: Nr:Datum:Temp:Abs-Feuchte:Windchill:Wind:
Aussen-T/F 1501 30-08-2019 05:00:00 16.1 C 12.47 g/m*3 16.1 C 0 km/h
1502 30-08-2019 05:05:00 16 C 12.53 g/m*3 16 C 0 km/h
1503 30-08-2019 05:10:00 15.9 C 12.46 g/m*3 15.9 C 0 km/h
1504 30-08-2019 05:15:00 15.8 C 12.38 g/m*3 15.8 C 0 km/h
1505 30-08-2019 05:20:00 15.8 C 12.38 g/m*3 15.8 C 0 km/h
1506 30-08-2019 05:25:00 15.7 C 12.31 g/m*3 15.7 C 0 km/h
1507 30-08-2019 05:30:00 15.8 C 12.52 g/m*3 15.8 C 0 km/h
1508 30-08-2019 05:35:00 15.9 C 12.59 g/m*3 15.9 C 0 km/h
1509 30-08-2019 05:40:00 16.1 C 12.88 g/m*3 16.1 C 0 km/h
1510 30-08-2019 05:45:00 16.1 C 12.88 g/m*3 16.1 C 0 km/h
1511 30-08-2019 05:50:00 16.2 C 12.96 g/m*3 16.2 C 1.6 km/h
1512 30-08-2019 05:55:00 16.3 C 13.04 g/m*3 16.3 C 0 km/h
1513 30-08-2019 06:00:00 16.3 C 13.04 g/m*3 16.3 C 0 km/h
1514 30-08-2019 06:05:00 16.3 C 13.04 g/m*3 16.3 C 1.6 km/h
1515 30-08-2019 06:10:00 16.3 C 13.04 g/m*3 16.3 C 0 km/h
1516 30-08-2019 06:15:00 16.2 C 12.82 g/m*3 16.2 C 0 km/h
1517 30-08-2019 06:20:00 16.1 C 12.75 g/m*3 16.1 C 0 km/h
1518 30-08-2019 06:25:00 16 C 12.67 g/m*3 16 C 0 km/h
1519 30-08-2019 06:30:00 15.9 C 12.59 g/m*3 15.9 C 0 km/h
1520 30-08-2019 06:35:00 15.7 C 12.44 g/m*3 15.7 C 0 km/h
1521 30-08-2019 06:40:00 15.7 C 12.44 g/m*3 15.7 C 0 km/h
1522 30-08-2019 06:45:00 15.6 C 12.37 g/m*3 15.6 C 0 km/h
1523 30-08-2019 06:50:00 15.5 C 12.29 g/m*3 15.5 C 0 km/h
1524 30-08-2019 06:55:00 15.4 C 12.22 g/m*3 15.4 C 0 km/h
1525 30-08-2019 07:00:00 15.3 C 12.14 g/m*3 15.3 C 0 km/h
Sensor: Nr:Datum:Temp:Abs-Feuchte:Windchill:Wind:
Aussen-T/F 1526 30-08-2019 07:05:00 15.3 C 12.14 g/m*3 15.3 C 0 km/h
1527 30-08-2019 07:10:00 15.3 C 12.14 g/m*3 15.3 C 0 km/h
1528 30-08-2019 07:15:00 15.3 C 12.14 g/m*3 15.3 C 0 km/h
1529 30-08-2019 07:20:00 15.4 C 12.35 g/m*3 15.4 C 0 km/h
1530 30-08-2019 07:25:00 15.4 C 12.35 g/m*3 15.4 C 0 km/h
1531 30-08-2019 07:30:00 15.4 C 12.35 g/m*3 15.4 C 0 km/h
1532 30-08-2019 07:35:00 15.4 C 12.35 g/m*3 15.4 C 0 km/h
1533 30-08-2019 07:40:00 15.5 C 12.43 g/m*3 15.5 C 0 km/h
1534 30-08-2019 07:45:00 15.5 C 12.43 g/m*3 15.5 C 0 km/h
1535 30-08-2019 07:50:00 15.6 C 12.5 g/m*3 15.6 C 0 km/h
1536 30-08-2019 07:55:00 15.6 C 12.5 g/m*3 15.6 C 0 km/h
1537 30-08-2019 08:00:00 15.7 C 12.58 g/m*3 15.7 C 0 km/h
1538 30-08-2019 08:05:00 15.7 C 12.58 g/m*3 15.7 C 0 km/h
1539 30-08-2019 08:10:00 15.8 C 12.65 g/m*3 15.8 C 0 km/h
1540 30-08-2019 08:15:00 15.8 C 12.65 g/m*3 15.8 C 0 km/h
1541 30-08-2019 08:20:00 15.9 C 12.73 g/m*3 15.9 C 0 km/h
1542 30-08-2019 08:25:00 15.9 C 12.73 g/m*3 15.9 C 0 km/h
1543 30-08-2019 08:30:00 16.1 C 13.02 g/m*3 16.1 C 1.6 km/h
1544 30-08-2019 08:35:00 16.2 C 13.1 g/m*3 16.2 C 1.6 km/h
1545 30-08-2019 08:40:00 16.3 C 13.18 g/m*3 16.3 C 0 km/h
1546 30-08-2019 08:45:00 16.4 C 13.26 g/m*3 16.4 C 0 km/h
1547 30-08-2019 08:50:00 16.6 C 13.42 g/m*3 16.6 C 0 km/h
1548 30-08-2019 08:55:00 16.7 C 13.36 g/m*3 16.7 C 0 km/h
1549 30-08-2019 09:00:00 16.9 C 13.52 g/m*3 16.9 C 1.6 km/h
1550 30-08-2019 09:05:00 17.1 C 13.54 g/m*3 17.1 C 3.2 km/h
Sensor: Nr:Datum:Temp:Abs-Feuchte:Windchill:Wind:
Aussen-T/F 1551 30-08-2019 09:10:00 17.3 C 13.41 g/m*3 17.3 C 1.6 km/h
1552 30-08-2019 09:15:00 17.6 C 13.65 g/m*3 17.6 C 0 km/h
1553 30-08-2019 09:20:00 17.8 C 13.66 g/m*3 17.8 C 0 km/h
1554 30-08-2019 09:25:00 17.9 C 13.59 g/m*3 17.9 C 0 km/h
1555 30-08-2019 09:30:00 18.1 C 13.75 g/m*3 18.1 C 1.6 km/h
1556 30-08-2019 09:35:00 18.3 C 13.76 g/m*3 18.3 C 1.6 km/h
1557 30-08-2019 09:40:00 18.5 C 13.61 g/m*3 18.5 C 0 km/h
1558 30-08-2019 09:45:00 18.6 C 13.53 g/m*3 18.6 C 1.6 km/h
1559 30-08-2019 09:50:00 18.7 C 13.45 g/m*3 18.7 C 1.6 km/h
1560 30-08-2019 09:55:00 18.8 C 13.53 g/m*3 18.8 C 0 km/h
1561 30-08-2019 10:00:00 18.9 C 13.61 g/m*3 18.9 C 0 km/h
1562 30-08-2019 10:05:00 19.1 C 13.61 g/m*3 19.1 C 0 km/h
1563 30-08-2019 10:10:00 19.1 C 13.61 g/m*3 19.1 C 0 km/h
1564 30-08-2019 10:15:00 19.2 C 13.52 g/m*3 19.2 C 0 km/h
1565 30-08-2019 10:20:00 19.3 C 13.6 g/m*3 19.3 C 1.6 km/h
1566 30-08-2019 10:25:00 19.3 C 13.6 g/m*3 19.3 C 0 km/h
1567 30-08-2019 10:30:00 19.4 C 13.68 g/m*3 19.4 C 0 km/h
1568 30-08-2019 10:35:00 19.5 C 13.59 g/m*3 19.5 C 0 km/h
1569 30-08-2019 10:40:00 19.6 C 13.51 g/m*3 19.6 C 0 km/h
1570 30-08-2019 10:45:00 19.7 C 13.92 g/m*3 19.7 C 0 km/h
1571 30-08-2019 10:50:00 19.8 C 13.66 g/m*3 19.8 C 6.4 km/h
1572 30-08-2019 10:55:00 20.1 C 13.91 g/m*3 20.1 C 6.4 km/h
1573 30-08-2019 11:00:00 20.2 C 13.81 g/m*3 20.2 C 0 km/h
1574 30-08-2019 11:05:00 20.3 C 13.72 g/m*3 20.3 C 4.8 km/h
1575 30-08-2019 11:10:00 20.4 C 13.8 g/m*3 20.4 C 0 km/h
Sensor: Nr:Datum:Temp:Abs-Feuchte:Windchill:Wind:
Aussen-T/F 1576 30-08-2019 11:15:00 20.6 C 13.78 g/m*3 20.6 C 3.2 km/h
1577 30-08-2019 11:20:00 20.7 C 13.68 g/m*3 20.7 C 1.6 km/h
1578 30-08-2019 11:25:00 20.8 C 13.76 g/m*3 20.8 C 3.2 km/h
1579 30-08-2019 11:30:00 20.9 C 13.84 g/m*3 20.9 C 0 km/h
1580 30-08-2019 11:35:00 21 C 13.74 g/m*3 21 C 0 km/h
1581 30-08-2019 11:40:00 21.1 C 13.82 g/m*3 21.1 C 1.6 km/h
1582 30-08-2019 11:45:00 21.2 C 13.71 g/m*3 21.2 C 1.6 km/h
1583 30-08-2019 11:50:00 21.3 C 13.79 g/m*3 21.3 C 1.6 km/h
1584 30-08-2019 11:55:00 21.4 C 13.87 g/m*3 21.4 C 0 km/h
1585 30-08-2019 12:00:00 21.5 C 13.95 g/m*3 21.5 C 4.8 km/h
1586 30-08-2019 12:05:00 21.7 C 13.93 g/m*3 21.7 C 3.2 km/h
1587 30-08-2019 12:10:00 21.8 C 14.2 g/m*3 21.8 C 1.6 km/h
1588 30-08-2019 12:15:00 21.9 C 14.09 g/m*3 21.9 C 4.8 km/h
1589 30-08-2019 12:20:00 22 C 14.17 g/m*3 22 C 1.6 km/h
1590 30-08-2019 12:25:00 22.1 C 14.25 g/m*3 22.1 C 3.2 km/h
1591 30-08-2019 12:30:00 22.2 C 14.33 g/m*3 22.2 C 4.8 km/h
1592 30-08-2019 12:35:00 22.3 C 14.41 g/m*3 22.3 C 4.8 km/h
1593 30-08-2019 12:40:00 22.4 C 14.5 g/m*3 22.4 C 4.8 km/h
1594 30-08-2019 12:45:00 22.6 C 14.46 g/m*3 22.6 C 3.2 km/h
1595 30-08-2019 12:50:00 22.7 C 14.34 g/m*3 22.7 C 6.4 km/h
1596 30-08-2019 12:55:00 22.8 C 14.22 g/m*3 22.8 C 3.2 km/h
1597 30-08-2019 13:00:00 22.8 C 14.22 g/m*3 22.8 C 0 km/h
1598 30-08-2019 13:05:00 22.9 C 14.71 g/m*3 22.9 C 1.6 km/h
1599 30-08-2019 13:10:00 23 C 14.8 g/m*3 23 C 0 km/h
1600 30-08-2019 13:15:00 23.1 C 14.68 g/m*3 23.1 C 0 km/h
Sensor: Nr:Datum:Temp:Abs-Feuchte:Windchill:Wind:
Aussen-T/F 1601 30-08-2019 13:20:00 23.2 C 14.34 g/m*3 23.2 C 3.2 km/h
1602 30-08-2019 13:25:00 23.4 C 14.72 g/m*3 23.4 C 3.2 km/h
1603 30-08-2019 13:30:00 23.8 C 14.41 g/m*3 23.8 C 9.7 km/h
1604 30-08-2019 13:35:00 24 C 14.36 g/m*3 24 C 6.4 km/h
1605 30-08-2019 13:40:00 24.1 C 14.44 g/m*3 24.1 C 8.1 km/h
1606 30-08-2019 13:45:00 24.2 C 14.52 g/m*3 24.2 C 8.1 km/h
1607 30-08-2019 13:50:00 24.3 C 14.38 g/m*3 24.3 C 9.7 km/h
1608 30-08-2019 13:55:00 24.3 C 14.38 g/m*3 24.3 C 8.1 km/h
1609 30-08-2019 14:00:00 24.4 C 14.02 g/m*3 24.4 C 4.8 km/h
1610 30-08-2019 14:05:00 24.5 C 14.55 g/m*3 24.5 C 6.4 km/h
1611 30-08-2019 14:10:00 24.7 C 14.49 g/m*3 24.7 C 6.4 km/h
1612 30-08-2019 14:15:00 24.8 C 14.34 g/m*3 24.8 C 6.4 km/h
1613 30-08-2019 14:20:00 24.9 C 13.96 g/m*3 24.9 C 8.1 km/h
1614 30-08-2019 14:25:00 25 C 13.81 g/m*3 25 C 4.8 km/h
1615 30-08-2019 14:30:00 25.1 C 14.12 g/m*3 25.1 C 6.4 km/h
1616 30-08-2019 14:35:00 25.2 C 14.2 g/m*3 25.2 C 4.8 km/h
1617 30-08-2019 14:40:00 25.3 C 14.05 g/m*3 25.3 C 8.1 km/h
1618 30-08-2019 14:45:00 25.3 C 13.81 g/m*3 25.3 C 4.8 km/h
1619 30-08-2019 14:50:00 25.4 C 13.65 g/m*3 25.4 C 4.8 km/h
1620 30-08-2019 14:55:00 25.4 C 12.95 g/m*3 25.4 C 6.4 km/h
1621 30-08-2019 15:00:00 25.6 C 13.33 g/m*3 25.6 C 6.4 km/h
1622 30-08-2019 15:05:00 25.7 C 12.21 g/m*3 25.7 C 4.8 km/h
1623 30-08-2019 15:10:00 25.8 C 12.28 g/m*3 25.8 C 3.2 km/h
1624 30-08-2019 15:15:00 25.8 C 12.52 g/m*3 25.8 C 4.8 km/h
1625 30-08-2019 15:20:00 25.9 C 12.59 g/m*3 25.9 C 8.1 km/h
Sensor: Nr:Datum:Temp:Abs-Feuchte:Windchill:Wind:
Aussen-T/F 1626 30-08-2019 15:25:00 26.2 C 12.56 g/m*3 26.2 C 8.1 km/h
1627 30-08-2019 15:30:00 26.2 C 13.05 g/m*3 26.2 C 4.8 km/h
1628 30-08-2019 15:35:00 26.3 C 12.63 g/m*3 26.3 C 6.4 km/h
1629 30-08-2019 15:40:00 26.4 C 12.45 g/m*3 26.4 C 6.4 km/h
1630 30-08-2019 15:45:00 26.6 C 12.59 g/m*3 26.6 C 9.7 km/h
1631 30-08-2019 15:50:00 26.7 C 12.4 g/m*3 26.7 C 6.4 km/h
1632 30-08-2019 15:55:00 26.8 C 12.47 g/m*3 26.8 C 0 km/h
1633 30-08-2019 16:00:00 26.9 C 12.54 g/m*3 26.9 C 0 km/h
1634 30-08-2019 16:05:00 27.1 C 12.94 g/m*3 27.1 C 8.1 km/h
1635 30-08-2019 16:10:00 27.2 C 13.01 g/m*3 27.2 C 9.7 km/h
1636 30-08-2019 16:15:00 27.3 C 12.3 g/m*3 27.3 C 3.2 km/h
1637 30-08-2019 16:20:00 27.6 C 13.04 g/m*3 27.6 C 6.4 km/h
1638 30-08-2019 16:25:00 27.8 C 12.91 g/m*3 27.8 C 6.4 km/h
1639 30-08-2019 16:30:00 28 C 12.78 g/m*3 28 C 8.1 km/h
1640 30-08-2019 16:35:00 28.3 C 12.16 g/m*3 28.3 C 3.2 km/h
1641 30-08-2019 16:40:00 28.6 C 12.65 g/m*3 28.6 C 4.8 km/h
1642 30-08-2019 16:45:00 28.8 C 11.36 g/m*3 28.8 C 4.8 km/h
1643 30-08-2019 16:50:00 29 C 11.2 g/m*3 29 C 6.4 km/h
1644 30-08-2019 16:55:00 29.2 C 11.61 g/m*3 29.2 C 4.8 km/h
1645 30-08-2019 17:00:00 29.4 C 11.15 g/m*3 29.4 C 1.6 km/h
1646 30-08-2019 17:05:00 29.4 C 11.15 g/m*3 29.4 C 3.2 km/h
1647 30-08-2019 17:10:00 29.5 C 10.92 g/m*3 29.5 C 3.2 km/h
1648 30-08-2019 17:15:00 29.5 C 11.81 g/m*3 29.5 C 6.4 km/h
1649 30-08-2019 17:20:00 29.5 C 10.92 g/m*3 29.5 C 4.8 km/h
1650 30-08-2019 17:25:00 29.6 C 12.17 g/m*3 29.6 C 1.6 km/h
Sensor: Nr:Datum:Temp:Abs-Feuchte:Windchill:Wind:
Aussen-T/F 1651 30-08-2019 17:30:00 29.6 C 11.28 g/m*3 29.6 C 3.2 km/h
1652 30-08-2019 17:35:00 29.8 C 11.4 g/m*3 29.8 C 4.8 km/h
1653 30-08-2019 17:40:00 29.8 C 11.1 g/m*3 29.8 C 4.8 km/h
1654 30-08-2019 17:45:00 29.9 C 11.16 g/m*3 29.9 C 4.8 km/h
1655 30-08-2019 17:50:00 29.9 C 10.86 g/m*3 29.9 C 4.8 km/h
1656 30-08-2019 17:55:00 30.1 C 11.28 g/m*3 30.1 C 1.6 km/h
1657 30-08-2019 18:00:00 30.2 C 10.73 g/m*3 30.2 C 3.2 km/h
1658 30-08-2019 18:05:00 30.4 C 10.85 g/m*3 30.4 C 3.2 km/h
1659 30-08-2019 18:10:00 30.4 C 11.47 g/m*3 30.4 C 6.4 km/h
1660 30-08-2019 18:15:00 30.1 C 11.28 g/m*3 30.1 C 8.1 km/h
1661 30-08-2019 18:20:00 29.7 C 11.34 g/m*3 29.7 C 6.4 km/h
1662 30-08-2019 18:25:00 29.5 C 11.51 g/m*3 29.5 C 9.7 km/h
1663 30-08-2019 18:30:00 29.3 C 11.09 g/m*3 29.3 C 6.4 km/h
1664 30-08-2019 18:35:00 29.2 C 11.03 g/m*3 29.2 C 4.8 km/h
1665 30-08-2019 18:40:00 29.2 C 10.74 g/m*3 29.2 C 6.4 km/h
1666 30-08-2019 18:45:00 28.9 C 11.14 g/m*3 28.9 C 6.4 km/h
1667 30-08-2019 18:50:00 28.8 C 11.08 g/m*3 28.8 C 6.4 km/h
1668 30-08-2019 18:55:00 28.8 C 11.08 g/m*3 28.8 C 8.1 km/h
1669 30-08-2019 19:00:00 28.5 C 11.18 g/m*3 28.5 C 6.4 km/h
1670 30-08-2019 19:05:00 28.3 C 10.78 g/m*3 28.3 C 6.4 km/h
1671 30-08-2019 19:10:00 28.2 C 11.27 g/m*3 28.2 C 4.8 km/h
1672 30-08-2019 19:15:00 28 C 11.69 g/m*3 28 C 1.6 km/h
1673 30-08-2019 19:20:00 27.8 C 12.91 g/m*3 27.8 C 4.8 km/h
1674 30-08-2019 19:25:00 27.6 C 12.77 g/m*3 27.6 C 0 km/h
1675 30-08-2019 19:30:00 27.3 C 13.08 g/m*3 27.3 C 0 km/h
Sensor: Nr:Datum:Temp:Abs-Feuchte:Windchill:Wind:
Aussen-T/F 1676 30-08-2019 19:35:00 26.9 C 12.8 g/m*3 26.9 C 0 km/h
1677 30-08-2019 19:40:00 26.5 C 12.77 g/m*3 26.5 C 0 km/h
1678 30-08-2019 19:45:00 26.1 C 12.49 g/m*3 26.1 C 0 km/h
1679 30-08-2019 19:50:00 25.7 C 12.45 g/m*3 25.7 C 0 km/h
1680 30-08-2019 19:55:00 25.2 C 12.11 g/m*3 25.2 C 1.6 km/h
1681 30-08-2019 20:00:00 24.8 C 11.84 g/m*3 24.8 C 1.6 km/h
1682 30-08-2019 20:05:00 24.4 C 11.79 g/m*3 24.4 C 0 km/h
1683 30-08-2019 20:10:00 23.9 C 11.47 g/m*3 23.9 C 0 km/h
1684 30-08-2019 20:15:00 23.6 C 11.48 g/m*3 23.6 C 1.6 km/h
1685 30-08-2019 20:20:00 23.2 C 11.23 g/m*3 23.2 C 0 km/h
1686 30-08-2019 20:25:00 22.9 C 11.44 g/m*3 22.9 C 0 km/h
1687 30-08-2019 20:30:00 22.7 C 11.31 g/m*3 22.7 C 0 km/h
1688 30-08-2019 20:35:00 22.4 C 11.12 g/m*3 22.4 C 0 km/h
1689 30-08-2019 20:40:00 22.3 C 11.06 g/m*3 22.3 C 0 km/h
1690 30-08-2019 20:45:00 22.1 C 11.13 g/m*3 22.1 C 0 km/h
1691 30-08-2019 20:50:00 22 C 11.65 g/m*3 22 C 0 km/h
1692 30-08-2019 20:55:00 21.7 C 11.45 g/m*3 21.7 C 0 km/h
1693 30-08-2019 21:00:00 21.4 C 11.25 g/m*3 21.4 C 0 km/h
1694 30-08-2019 21:05:00 21.2 C 11.12 g/m*3 21.2 C 0 km/h
1695 30-08-2019 21:10:00 21.1 C 11.42 g/m*3 21.1 C 0 km/h
1696 30-08-2019 21:15:00 20.9 C 11.47 g/m*3 20.9 C 0 km/h
1697 30-08-2019 21:20:00 20.7 C 11.52 g/m*3 20.7 C 0 km/h
1698 30-08-2019 21:25:00 20.5 C 11.57 g/m*3 20.5 C 0 km/h
1699 30-08-2019 21:30:00 20.3 C 11.43 g/m*3 20.3 C 0 km/h
1700 30-08-2019 21:35:00 20.1 C 11.65 g/m*3 20.1 C 0 km/h
Sensor: Nr:Datum:Temp:Abs-Feuchte:Windchill:Wind:
Aussen-T/F 1701 30-08-2019 21:40:00 19.9 C 11.68 g/m*3 19.9 C 0 km/h
1702 30-08-2019 21:45:00 19.7 C 11.55 g/m*3 19.7 C 0 km/h
1703 30-08-2019 21:50:00 19.5 C 11.58 g/m*3 19.5 C 0 km/h
1704 30-08-2019 21:55:00 19.3 C 11.61 g/m*3 19.3 C 0 km/h
1705 30-08-2019 22:00:00 19.3 C 11.78 g/m*3 19.3 C 0 km/h
1706 30-08-2019 22:05:00 19.1 C 11.8 g/m*3 19.1 C 0 km/h
1707 30-08-2019 22:10:00 19 C 11.41 g/m*3 19 C 0 km/h
1708 30-08-2019 22:15:00 18.9 C 11.5 g/m*3 18.9 C 0 km/h
1709 30-08-2019 22:20:00 18.8 C 11.43 g/m*3 18.8 C 0 km/h
1710 30-08-2019 22:25:00 18.8 C 11.6 g/m*3 18.8 C 0 km/h
1711 30-08-2019 22:30:00 18.7 C 11.69 g/m*3 18.7 C 0 km/h
1712 30-08-2019 22:35:00 18.6 C 11.62 g/m*3 18.6 C 0 km/h
1713 30-08-2019 22:40:00 18.3 C 11.57 g/m*3 18.3 C 0 km/h
1714 30-08-2019 22:45:00 18.2 C 11.5 g/m*3 18.2 C 0 km/h
1715 30-08-2019 22:50:00 18.1 C 11.59 g/m*3 18.1 C 0 km/h
1716 30-08-2019 22:55:00 17.9 C 11.45 g/m*3 17.9 C 0 km/h
1717 30-08-2019 23:00:00 17.8 C 11.54 g/m*3 17.8 C 0 km/h
1718 30-08-2019 23:05:00 17.8 C 11.54 g/m*3 17.8 C 0 km/h
1719 30-08-2019 23:10:00 17.7 C 11.47 g/m*3 17.7 C 0 km/h
1720 30-08-2019 23:15:00 17.6 C 11.55 g/m*3 17.6 C 0 km/h
1721 30-08-2019 23:20:00 17.4 C 11.26 g/m*3 17.4 C 0 km/h
1722 30-08-2019 23:25:00 17.3 C 11.34 g/m*3 17.3 C 0 km/h
1723 30-08-2019 23:30:00 17.3 C 11.34 g/m*3 17.3 C 0 km/h
1724 30-08-2019 23:35:00 17.3 C 11.49 g/m*3 17.3 C 0 km/h
1725 30-08-2019 23:40:00 17.2 C 11.42 g/m*3 17.2 C 0 km/h
Sensor: Nr:Datum:Temp:Abs-Feuchte:Windchill:Wind:
Aussen-T/F 1726 30-08-2019 23:45:00 17.2 C 11.42 g/m*3 17.2 C 0 km/h
1727 30-08-2019 23:50:00 17.1 C 11.5 g/m*3 17.1 C 0 km/h
1728 30-08-2019 23:55:00 16.9 C 11.36 g/m*3 16.9 C 0 km/h

Legende:
   Min
   Max


Maximal/Minimal-Werte vom 25.08.2019 - 30.08.2019

Sensor Min Max Avg
Temp
(Aussen-T/F)
14.3 °C
25-08-2019  06:25:00
34.3 °C
27-08-2019  17:00:00
22.2 °C
Abs-Feuchte
(Aussen-T/F)
10.73 g/m*3
30-08-2019  18:00:00
18.9 g/m*3
26-08-2019  18:50:00
14.57 g/m*3
Windchill
(Aussen-T/F)
14.3 C
25-08-2019  06:25:00
34.3 C
27-08-2019  17:00:00
22.19 C

Die Daten stammen von einer Davis Vantage Pro 2 Wetter-Station und werden unter Linux mit der Software wview2wettercgi und aufbereitet. Alle Angaben erfolgen ohne Gewähr für ihre Vollständigkeit oder Richtigkeit.
Kontakt: Rainer Krienke krienke@uni-koblenz.de . Meine Webseiten an der Uni Koblenz oder privat.
Version: $Revision: 0.78 $